<?xml version="1.0" encoding="UTF-8" standalone="no" ?>
<gpx xmlns="http://www.topografix.com/GPX/1/1" xmlns:xsi="http://www.w3.org/2001/XMLSchema-instance" xsi:schemaLocation="http://www.topografix.com/GPX/1/1 http://www.topografix.com/GPX/1/1/gpx.xsd" version="1.1" creator="VisuGPX - https://www.visugpx.com">
  <metadata>
    <name>Sortie cyclo du 6/05/2011</name>
    <desc><![CDATA[Rapide et chaude sortie ventée]]></desc>
  </metadata>
  <trk>
    <name><![CDATA[ACTIVE LOG 001]]></name>
    <trkseg>
      <trkpt lat="47.07577" lon="5.49155">
        <ele>190.958984</ele>
        <time>2011-05-06T11:49:48Z</time>
      </trkpt>
      <trkpt lat="47.07509" lon="5.49281">
        <ele>194.32373</ele>
        <time>2011-05-06T11:50:09Z</time>
      </trkpt>
      <trkpt lat="47.0749" lon="5.49318">
        <ele>197.20752</ele>
        <time>2011-05-06T11:50:16Z</time>
      </trkpt>
      <trkpt lat="47.07481" lon="5.49337">
        <ele>199.61084</ele>
        <time>2011-05-06T11:50:20Z</time>
      </trkpt>
      <trkpt lat="47.07474" lon="5.49351">
        <ele>201.533569</ele>
        <time>2011-05-06T11:50:23Z</time>
      </trkpt>
      <trkpt lat="47.07464" lon="5.49374">
        <ele>203.456177</ele>
        <time>2011-05-06T11:50:28Z</time>
      </trkpt>
      <trkpt lat="47.07446" lon="5.49401">
        <ele>206.340088</ele>
        <time>2011-05-06T11:50:35Z</time>
      </trkpt>
      <trkpt lat="47.07435" lon="5.49407">
        <ele>207.782104</ele>
        <time>2011-05-06T11:50:39Z</time>
      </trkpt>
      <trkpt lat="47.07431" lon="5.49408">
        <ele>208.262817</ele>
        <time>2011-05-06T11:50:40Z</time>
      </trkpt>
      <trkpt lat="47.07423" lon="5.49418">
        <ele>209.704834</ele>
        <time>2011-05-06T11:50:43Z</time>
      </trkpt>
      <trkpt lat="47.07418" lon="5.49439">
        <ele>210.185425</ele>
        <time>2011-05-06T11:50:47Z</time>
      </trkpt>
      <trkpt lat="47.07418" lon="5.49452">
        <ele>210.666016</ele>
        <time>2011-05-06T11:50:49Z</time>
      </trkpt>
      <trkpt lat="47.07412" lon="5.49476">
        <ele>212.108032</ele>
        <time>2011-05-06T11:50:53Z</time>
      </trkpt>
      <trkpt lat="47.07403" lon="5.49496">
        <ele>213.069336</ele>
        <time>2011-05-06T11:50:57Z</time>
      </trkpt>
      <trkpt lat="47.07376" lon="5.49556">
        <ele>216.914673</ele>
        <time>2011-05-06T11:51:09Z</time>
      </trkpt>
      <trkpt lat="47.07338" lon="5.49665">
        <ele>218.83728</ele>
        <time>2011-05-06T11:51:29Z</time>
      </trkpt>
      <trkpt lat="47.07324" lon="5.49707">
        <ele>219.317993</ele>
        <time>2011-05-06T11:51:37Z</time>
      </trkpt>
      <trkpt lat="47.07301" lon="5.49731">
        <ele>219.798584</ele>
        <time>2011-05-06T11:51:44Z</time>
      </trkpt>
      <trkpt lat="47.07296" lon="5.49741">
        <ele>219.798584</ele>
        <time>2011-05-06T11:51:46Z</time>
      </trkpt>
      <trkpt lat="47.07267" lon="5.4975">
        <ele>221.721191</ele>
        <time>2011-05-06T11:51:53Z</time>
      </trkpt>
      <trkpt lat="47.07181" lon="5.49718">
        <ele>223.163208</ele>
        <time>2011-05-06T11:52:13Z</time>
      </trkpt>
      <trkpt lat="47.07068" lon="5.49674">
        <ele>222.201782</ele>
        <time>2011-05-06T11:52:38Z</time>
      </trkpt>
      <trkpt lat="47.07029" lon="5.49662">
        <ele>222.201782</ele>
        <time>2011-05-06T11:52:51Z</time>
      </trkpt>
      <trkpt lat="47.06997" lon="5.49648">
        <ele>222.201782</ele>
        <time>2011-05-06T11:53:01Z</time>
      </trkpt>
      <trkpt lat="47.06986" lon="5.49689">
        <ele>222.201782</ele>
        <time>2011-05-06T11:53:09Z</time>
      </trkpt>
      <trkpt lat="47.06984" lon="5.49702">
        <ele>222.201782</ele>
        <time>2011-05-06T11:53:11Z</time>
      </trkpt>
      <trkpt lat="47.06937" lon="5.49876">
        <ele>223.643799</ele>
        <time>2011-05-06T11:53:38Z</time>
      </trkpt>
      <trkpt lat="47.06926" lon="5.49921">
        <ele>224.124512</ele>
        <time>2011-05-06T11:53:45Z</time>
      </trkpt>
      <trkpt lat="47.06913" lon="5.49972">
        <ele>225.566528</ele>
        <time>2011-05-06T11:53:54Z</time>
      </trkpt>
      <trkpt lat="47.06907" lon="5.49987">
        <ele>225.085938</ele>
        <time>2011-05-06T11:53:57Z</time>
      </trkpt>
      <trkpt lat="47.06899" lon="5.50002">
        <ele>225.566528</ele>
        <time>2011-05-06T11:54:00Z</time>
      </trkpt>
      <trkpt lat="47.06878" lon="5.50049">
        <ele>226.047119</ele>
        <time>2011-05-06T11:54:09Z</time>
      </trkpt>
      <trkpt lat="47.06874" lon="5.50071">
        <ele>226.047119</ele>
        <time>2011-05-06T11:54:13Z</time>
      </trkpt>
      <trkpt lat="47.06865" lon="5.5012">
        <ele>227.969727</ele>
        <time>2011-05-06T11:54:23Z</time>
      </trkpt>
      <trkpt lat="47.06853" lon="5.50164">
        <ele>228.931152</ele>
        <time>2011-05-06T11:54:31Z</time>
      </trkpt>
      <trkpt lat="47.06854" lon="5.50183">
        <ele>229.411743</ele>
        <time>2011-05-06T11:54:34Z</time>
      </trkpt>
      <trkpt lat="47.06841" lon="5.50231">
        <ele>231.334351</ele>
        <time>2011-05-06T11:54:43Z</time>
      </trkpt>
      <trkpt lat="47.06805" lon="5.50321">
        <ele>234.218384</ele>
        <time>2011-05-06T11:55:00Z</time>
      </trkpt>
      <trkpt lat="47.06784" lon="5.50403">
        <ele>235.179688</ele>
        <time>2011-05-06T11:55:15Z</time>
      </trkpt>
      <trkpt lat="47.06776" lon="5.50433">
        <ele>234.699097</ele>
        <time>2011-05-06T11:55:20Z</time>
      </trkpt>
      <trkpt lat="47.06771" lon="5.5046">
        <ele>234.699097</ele>
        <time>2011-05-06T11:55:24Z</time>
      </trkpt>
      <trkpt lat="47.06769" lon="5.50483">
        <ele>234.218384</ele>
        <time>2011-05-06T11:55:27Z</time>
      </trkpt>
      <trkpt lat="47.0677" lon="5.50513">
        <ele>234.218384</ele>
        <time>2011-05-06T11:55:31Z</time>
      </trkpt>
      <trkpt lat="47.06764" lon="5.50533">
        <ele>234.218384</ele>
        <time>2011-05-06T11:55:34Z</time>
      </trkpt>
      <trkpt lat="47.06755" lon="5.50593">
        <ele>234.699097</ele>
        <time>2011-05-06T11:55:44Z</time>
      </trkpt>
      <trkpt lat="47.06724" lon="5.50621">
        <ele>236.140991</ele>
        <time>2011-05-06T11:55:55Z</time>
      </trkpt>
      <trkpt lat="47.06682" lon="5.5065">
        <ele>236.621704</ele>
        <time>2011-05-06T11:56:05Z</time>
      </trkpt>
      <trkpt lat="47.06641" lon="5.50679">
        <ele>238.063599</ele>
        <time>2011-05-06T11:56:15Z</time>
      </trkpt>
      <trkpt lat="47.06616" lon="5.50696">
        <ele>239.505493</ele>
        <time>2011-05-06T11:56:21Z</time>
      </trkpt>
      <trkpt lat="47.06581" lon="5.50723">
        <ele>241.428223</ele>
        <time>2011-05-06T11:56:30Z</time>
      </trkpt>
      <trkpt lat="47.06516" lon="5.50769">
        <ele>242.389648</ele>
        <time>2011-05-06T11:56:46Z</time>
      </trkpt>
      <trkpt lat="47.06467" lon="5.50804">
        <ele>242.389648</ele>
        <time>2011-05-06T11:56:58Z</time>
      </trkpt>
      <trkpt lat="47.06451" lon="5.50817">
        <ele>242.389648</ele>
        <time>2011-05-06T11:57:02Z</time>
      </trkpt>
      <trkpt lat="47.06421" lon="5.50839">
        <ele>242.870239</ele>
        <time>2011-05-06T11:57:09Z</time>
      </trkpt>
      <trkpt lat="47.06395" lon="5.50857">
        <ele>243.35083</ele>
        <time>2011-05-06T11:57:15Z</time>
      </trkpt>
      <trkpt lat="47.06361" lon="5.50886">
        <ele>243.35083</ele>
        <time>2011-05-06T11:57:23Z</time>
      </trkpt>
      <trkpt lat="47.06257" lon="5.50916">
        <ele>242.870239</ele>
        <time>2011-05-06T11:57:30Z</time>
      </trkpt>
      <trkpt lat="47.06223" lon="5.50923">
        <ele>242.870239</ele>
        <time>2011-05-06T11:57:35Z</time>
      </trkpt>
      <trkpt lat="47.06148" lon="5.50977">
        <ele>240.467041</ele>
        <time>2011-05-06T11:57:47Z</time>
      </trkpt>
      <trkpt lat="47.06142" lon="5.50983">
        <ele>240.467041</ele>
        <time>2011-05-06T11:57:48Z</time>
      </trkpt>
      <trkpt lat="47.06072" lon="5.51061">
        <ele>238.544312</ele>
        <time>2011-05-06T11:58:00Z</time>
      </trkpt>
      <trkpt lat="47.06006" lon="5.51105">
        <ele>239.024902</ele>
        <time>2011-05-06T11:58:10Z</time>
      </trkpt>
      <trkpt lat="47.05989" lon="5.51118">
        <ele>240.467041</ele>
        <time>2011-05-06T11:58:14Z</time>
      </trkpt>
      <trkpt lat="47.05984" lon="5.51121">
        <ele>240.467041</ele>
        <time>2011-05-06T11:58:15Z</time>
      </trkpt>
      <trkpt lat="47.05945" lon="5.51147">
        <ele>241.908936</ele>
        <time>2011-05-06T11:58:23Z</time>
      </trkpt>
      <trkpt lat="47.05924" lon="5.5116">
        <ele>241.908936</ele>
        <time>2011-05-06T11:58:27Z</time>
      </trkpt>
      <trkpt lat="47.05876" lon="5.51194">
        <ele>241.428223</ele>
        <time>2011-05-06T11:58:37Z</time>
      </trkpt>
      <trkpt lat="47.05871" lon="5.51197">
        <ele>241.908936</ele>
        <time>2011-05-06T11:58:38Z</time>
      </trkpt>
      <trkpt lat="47.05823" lon="5.51233">
        <ele>241.908936</ele>
        <time>2011-05-06T11:58:48Z</time>
      </trkpt>
      <trkpt lat="47.05733" lon="5.51287">
        <ele>240.467041</ele>
        <time>2011-05-06T11:59:02Z</time>
      </trkpt>
      <trkpt lat="47.0566" lon="5.51314">
        <ele>240.467041</ele>
        <time>2011-05-06T11:59:12Z</time>
      </trkpt>
      <trkpt lat="47.05591" lon="5.51341">
        <ele>243.35083</ele>
        <time>2011-05-06T11:59:24Z</time>
      </trkpt>
      <trkpt lat="47.05535" lon="5.51363">
        <ele>246.234863</ele>
        <time>2011-05-06T11:59:35Z</time>
      </trkpt>
      <trkpt lat="47.05501" lon="5.51377">
        <ele>248.638184</ele>
        <time>2011-05-06T11:59:42Z</time>
      </trkpt>
      <trkpt lat="47.05457" lon="5.51395">
        <ele>250.0802</ele>
        <time>2011-05-06T11:59:51Z</time>
      </trkpt>
      <trkpt lat="47.05413" lon="5.51413">
        <ele>251.041382</ele>
        <time>2011-05-06T12:00:00Z</time>
      </trkpt>
      <trkpt lat="47.05348" lon="5.51437">
        <ele>252.963989</ele>
        <time>2011-05-06T12:00:13Z</time>
      </trkpt>
      <trkpt lat="47.05331" lon="5.51446">
        <ele>253.444702</ele>
        <time>2011-05-06T12:00:16Z</time>
      </trkpt>
      <trkpt lat="47.05299" lon="5.51461">
        <ele>253.925415</ele>
        <time>2011-05-06T12:00:23Z</time>
      </trkpt>
      <trkpt lat="47.05239" lon="5.51489">
        <ele>253.925415</ele>
        <time>2011-05-06T12:00:33Z</time>
      </trkpt>
      <trkpt lat="47.0515" lon="5.51542">
        <ele>251.041382</ele>
        <time>2011-05-06T12:00:48Z</time>
      </trkpt>
      <trkpt lat="47.05053" lon="5.51589">
        <ele>247.196045</ele>
        <time>2011-05-06T12:01:00Z</time>
      </trkpt>
      <trkpt lat="47.05045" lon="5.51593">
        <ele>247.196045</ele>
        <time>2011-05-06T12:01:01Z</time>
      </trkpt>
      <trkpt lat="47.04957" lon="5.51639">
        <ele>243.831543</ele>
        <time>2011-05-06T12:01:11Z</time>
      </trkpt>
      <trkpt lat="47.04939" lon="5.51651">
        <ele>242.870239</ele>
        <time>2011-05-06T12:01:13Z</time>
      </trkpt>
      <trkpt lat="47.04868" lon="5.51693">
        <ele>239.986206</ele>
        <time>2011-05-06T12:01:21Z</time>
      </trkpt>
      <trkpt lat="47.04785" lon="5.51736">
        <ele>236.621704</ele>
        <time>2011-05-06T12:01:29Z</time>
      </trkpt>
      <trkpt lat="47.04742" lon="5.5176">
        <ele>234.699097</ele>
        <time>2011-05-06T12:01:33Z</time>
      </trkpt>
      <trkpt lat="47.04665" lon="5.5182">
        <ele>231.334351</ele>
        <time>2011-05-06T12:01:41Z</time>
      </trkpt>
      <trkpt lat="47.04646" lon="5.51836">
        <ele>230.373047</ele>
        <time>2011-05-06T12:01:43Z</time>
      </trkpt>
      <trkpt lat="47.04592" lon="5.5189">
        <ele>226.527832</ele>
        <time>2011-05-06T12:01:49Z</time>
      </trkpt>
      <trkpt lat="47.04583" lon="5.519">
        <ele>226.527832</ele>
        <time>2011-05-06T12:01:50Z</time>
      </trkpt>
      <trkpt lat="47.04496" lon="5.5201">
        <ele>225.566528</ele>
        <time>2011-05-06T12:02:02Z</time>
      </trkpt>
      <trkpt lat="47.04492" lon="5.52019">
        <ele>225.566528</ele>
        <time>2011-05-06T12:02:03Z</time>
      </trkpt>
      <trkpt lat="47.04472" lon="5.52064">
        <ele>227.008545</ele>
        <time>2011-05-06T12:02:09Z</time>
      </trkpt>
      <trkpt lat="47.04425" lon="5.52134">
        <ele>230.373047</ele>
        <time>2011-05-06T12:02:18Z</time>
      </trkpt>
      <trkpt lat="47.04416" lon="5.52151">
        <ele>230.85376</ele>
        <time>2011-05-06T12:02:20Z</time>
      </trkpt>
      <trkpt lat="47.04342" lon="5.52276">
        <ele>232.295776</ele>
        <time>2011-05-06T12:02:38Z</time>
      </trkpt>
      <trkpt lat="47.04252" lon="5.52445">
        <ele>234.218384</ele>
        <time>2011-05-06T12:03:03Z</time>
      </trkpt>
      <trkpt lat="47.04229" lon="5.52489">
        <ele>234.218384</ele>
        <time>2011-05-06T12:03:09Z</time>
      </trkpt>
      <trkpt lat="47.04161" lon="5.52627">
        <ele>235.179688</ele>
        <time>2011-05-06T12:03:28Z</time>
      </trkpt>
      <trkpt lat="47.04098" lon="5.52748">
        <ele>235.179688</ele>
        <time>2011-05-06T12:03:43Z</time>
      </trkpt>
      <trkpt lat="47.04018" lon="5.52881">
        <ele>234.218384</ele>
        <time>2011-05-06T12:04:00Z</time>
      </trkpt>
      <trkpt lat="47.03958" lon="5.5296">
        <ele>230.85376</ele>
        <time>2011-05-06T12:04:09Z</time>
      </trkpt>
      <trkpt lat="47.03933" lon="5.53">
        <ele>230.373047</ele>
        <time>2011-05-06T12:04:13Z</time>
      </trkpt>
      <trkpt lat="47.03885" lon="5.53103">
        <ele>233.737671</ele>
        <time>2011-05-06T12:04:24Z</time>
      </trkpt>
      <trkpt lat="47.0381" lon="5.53273">
        <ele>235.179688</ele>
        <time>2011-05-06T12:04:43Z</time>
      </trkpt>
      <trkpt lat="47.03723" lon="5.53474">
        <ele>233.737671</ele>
        <time>2011-05-06T12:05:05Z</time>
      </trkpt>
      <trkpt lat="47.03654" lon="5.53608">
        <ele>230.373047</ele>
        <time>2011-05-06T12:05:19Z</time>
      </trkpt>
      <trkpt lat="47.03647" lon="5.53618">
        <ele>230.373047</ele>
        <time>2011-05-06T12:05:20Z</time>
      </trkpt>
      <trkpt lat="47.03602" lon="5.53696">
        <ele>227.008545</ele>
        <time>2011-05-06T12:05:27Z</time>
      </trkpt>
      <trkpt lat="47.03583" lon="5.53751">
        <ele>225.085938</ele>
        <time>2011-05-06T12:05:31Z</time>
      </trkpt>
      <trkpt lat="47.03567" lon="5.53862">
        <ele>222.201782</ele>
        <time>2011-05-06T12:05:38Z</time>
      </trkpt>
      <trkpt lat="47.03558" lon="5.53982">
        <ele>218.83728</ele>
        <time>2011-05-06T12:05:45Z</time>
      </trkpt>
      <trkpt lat="47.03557" lon="5.53998">
        <ele>218.356567</ele>
        <time>2011-05-06T12:05:46Z</time>
      </trkpt>
      <trkpt lat="47.03558" lon="5.54181">
        <ele>217.395386</ele>
        <time>2011-05-06T12:05:59Z</time>
      </trkpt>
      <trkpt lat="47.03546" lon="5.54413">
        <ele>219.317993</ele>
        <time>2011-05-06T12:06:18Z</time>
      </trkpt>
      <trkpt lat="47.03522" lon="5.54481">
        <ele>222.682495</ele>
        <time>2011-05-06T12:06:26Z</time>
      </trkpt>
      <trkpt lat="47.03484" lon="5.5453">
        <ele>226.047119</ele>
        <time>2011-05-06T12:06:35Z</time>
      </trkpt>
      <trkpt lat="47.03455" lon="5.54548">
        <ele>228.450439</ele>
        <time>2011-05-06T12:06:41Z</time>
      </trkpt>
      <trkpt lat="47.03382" lon="5.5457">
        <ele>231.814941</ele>
        <time>2011-05-06T12:06:55Z</time>
      </trkpt>
      <trkpt lat="47.03297" lon="5.54586">
        <ele>234.699097</ele>
        <time>2011-05-06T12:07:11Z</time>
      </trkpt>
      <trkpt lat="47.03275" lon="5.54595">
        <ele>235.660278</ele>
        <time>2011-05-06T12:07:15Z</time>
      </trkpt>
      <trkpt lat="47.03211" lon="5.54675">
        <ele>237.102295</ele>
        <time>2011-05-06T12:07:29Z</time>
      </trkpt>
      <trkpt lat="47.03156" lon="5.54781">
        <ele>235.660278</ele>
        <time>2011-05-06T12:07:42Z</time>
      </trkpt>
      <trkpt lat="47.03068" lon="5.54962">
        <ele>235.660278</ele>
        <time>2011-05-06T12:08:03Z</time>
      </trkpt>
      <trkpt lat="47.02996" lon="5.55093">
        <ele>236.140991</ele>
        <time>2011-05-06T12:08:19Z</time>
      </trkpt>
      <trkpt lat="47.02988" lon="5.5511">
        <ele>237.582886</ele>
        <time>2011-05-06T12:08:21Z</time>
      </trkpt>
      <trkpt lat="47.02971" lon="5.55146">
        <ele>236.621704</ele>
        <time>2011-05-06T12:08:25Z</time>
      </trkpt>
      <trkpt lat="47.02893" lon="5.55267">
        <ele>235.660278</ele>
        <time>2011-05-06T12:08:40Z</time>
      </trkpt>
      <trkpt lat="47.02851" lon="5.55327">
        <ele>236.140991</ele>
        <time>2011-05-06T12:08:48Z</time>
      </trkpt>
      <trkpt lat="47.02811" lon="5.55387">
        <ele>235.179688</ele>
        <time>2011-05-06T12:08:56Z</time>
      </trkpt>
      <trkpt lat="47.02742" lon="5.55533">
        <ele>233.737671</ele>
        <time>2011-05-06T12:09:12Z</time>
      </trkpt>
      <trkpt lat="47.02707" lon="5.55672">
        <ele>232.776489</ele>
        <time>2011-05-06T12:09:24Z</time>
      </trkpt>
      <trkpt lat="47.02652" lon="5.55753">
        <ele>233.737671</ele>
        <time>2011-05-06T12:09:34Z</time>
      </trkpt>
      <trkpt lat="47.02589" lon="5.55888">
        <ele>234.218384</ele>
        <time>2011-05-06T12:09:48Z</time>
      </trkpt>
      <trkpt lat="47.02529" lon="5.56076">
        <ele>235.179688</ele>
        <time>2011-05-06T12:10:06Z</time>
      </trkpt>
      <trkpt lat="47.0252" lon="5.56133">
        <ele>236.140991</ele>
        <time>2011-05-06T12:10:11Z</time>
      </trkpt>
      <trkpt lat="47.02498" lon="5.56287">
        <ele>234.699097</ele>
        <time>2011-05-06T12:10:25Z</time>
      </trkpt>
      <trkpt lat="47.02462" lon="5.56322">
        <ele>235.179688</ele>
        <time>2011-05-06T12:10:32Z</time>
      </trkpt>
      <trkpt lat="47.02441" lon="5.5632">
        <ele>233.25708</ele>
        <time>2011-05-06T12:10:35Z</time>
      </trkpt>
      <trkpt lat="47.02434" lon="5.56319">
        <ele>232.295776</ele>
        <time>2011-05-06T12:10:36Z</time>
      </trkpt>
      <trkpt lat="47.024" lon="5.56339">
        <ele>228.931152</ele>
        <time>2011-05-06T12:10:41Z</time>
      </trkpt>
      <trkpt lat="47.02394" lon="5.56347">
        <ele>228.450439</ele>
        <time>2011-05-06T12:10:42Z</time>
      </trkpt>
      <trkpt lat="47.02369" lon="5.56389">
        <ele>226.527832</ele>
        <time>2011-05-06T12:10:46Z</time>
      </trkpt>
      <trkpt lat="47.02335" lon="5.56489">
        <ele>224.605225</ele>
        <time>2011-05-06T12:10:54Z</time>
      </trkpt>
      <trkpt lat="47.02326" lon="5.56611">
        <ele>227.969727</ele>
        <time>2011-05-06T12:11:07Z</time>
      </trkpt>
      <trkpt lat="47.02309" lon="5.56749">
        <ele>230.373047</ele>
        <time>2011-05-06T12:11:24Z</time>
      </trkpt>
      <trkpt lat="47.02276" lon="5.56873">
        <ele>230.85376</ele>
        <time>2011-05-06T12:11:40Z</time>
      </trkpt>
      <trkpt lat="47.02209" lon="5.57006">
        <ele>228.931152</ele>
        <time>2011-05-06T12:11:56Z</time>
      </trkpt>
      <trkpt lat="47.02193" lon="5.57042">
        <ele>228.450439</ele>
        <time>2011-05-06T12:12:00Z</time>
      </trkpt>
      <trkpt lat="47.02178" lon="5.5716">
        <ele>228.931152</ele>
        <time>2011-05-06T12:12:13Z</time>
      </trkpt>
      <trkpt lat="47.0217" lon="5.57271">
        <ele>231.814941</ele>
        <time>2011-05-06T12:12:27Z</time>
      </trkpt>
      <trkpt lat="47.02169" lon="5.57449">
        <ele>232.295776</ele>
        <time>2011-05-06T12:12:47Z</time>
      </trkpt>
      <trkpt lat="47.0216" lon="5.57536">
        <ele>231.814941</ele>
        <time>2011-05-06T12:12:55Z</time>
      </trkpt>
      <trkpt lat="47.02115" lon="5.5767">
        <ele>232.295776</ele>
        <time>2011-05-06T12:13:11Z</time>
      </trkpt>
      <trkpt lat="47.02056" lon="5.57816">
        <ele>230.85376</ele>
        <time>2011-05-06T12:13:29Z</time>
      </trkpt>
      <trkpt lat="47.0198" lon="5.57934">
        <ele>227.969727</ele>
        <time>2011-05-06T12:13:44Z</time>
      </trkpt>
      <trkpt lat="47.01886" lon="5.58068">
        <ele>225.085938</ele>
        <time>2011-05-06T12:14:02Z</time>
      </trkpt>
      <trkpt lat="47.01853" lon="5.58118">
        <ele>223.643799</ele>
        <time>2011-05-06T12:14:09Z</time>
      </trkpt>
      <trkpt lat="47.01844" lon="5.58133">
        <ele>224.124512</ele>
        <time>2011-05-06T12:14:11Z</time>
      </trkpt>
      <trkpt lat="47.01807" lon="5.5814">
        <ele>222.201782</ele>
        <time>2011-05-06T12:14:16Z</time>
      </trkpt>
      <trkpt lat="47.01771" lon="5.58126">
        <ele>219.798584</ele>
        <time>2011-05-06T12:14:20Z</time>
      </trkpt>
      <trkpt lat="47.01739" lon="5.58159">
        <ele>219.317993</ele>
        <time>2011-05-06T12:14:25Z</time>
      </trkpt>
      <trkpt lat="47.01725" lon="5.58295">
        <ele>216.43396</ele>
        <time>2011-05-06T12:14:35Z</time>
      </trkpt>
      <trkpt lat="47.0172" lon="5.58459">
        <ele>217.875977</ele>
        <time>2011-05-06T12:14:48Z</time>
      </trkpt>
      <trkpt lat="47.01706" lon="5.5851">
        <ele>217.875977</ele>
        <time>2011-05-06T12:14:52Z</time>
      </trkpt>
      <trkpt lat="47.01688" lon="5.58559">
        <ele>218.356567</ele>
        <time>2011-05-06T12:14:56Z</time>
      </trkpt>
      <trkpt lat="47.01674" lon="5.58711">
        <ele>217.395386</ele>
        <time>2011-05-06T12:15:08Z</time>
      </trkpt>
      <trkpt lat="47.01657" lon="5.58916">
        <ele>217.395386</ele>
        <time>2011-05-06T12:15:25Z</time>
      </trkpt>
      <trkpt lat="47.01669" lon="5.59057">
        <ele>215.472656</ele>
        <time>2011-05-06T12:15:37Z</time>
      </trkpt>
      <trkpt lat="47.01681" lon="5.59117">
        <ele>216.43396</ele>
        <time>2011-05-06T12:15:42Z</time>
      </trkpt>
      <trkpt lat="47.01692" lon="5.59176">
        <ele>215.472656</ele>
        <time>2011-05-06T12:15:47Z</time>
      </trkpt>
      <trkpt lat="47.01674" lon="5.59225">
        <ele>216.43396</ele>
        <time>2011-05-06T12:15:52Z</time>
      </trkpt>
      <trkpt lat="47.0161" lon="5.59273">
        <ele>217.395386</ele>
        <time>2011-05-06T12:16:00Z</time>
      </trkpt>
      <trkpt lat="47.0158" lon="5.5929">
        <ele>216.43396</ele>
        <time>2011-05-06T12:16:04Z</time>
      </trkpt>
      <trkpt lat="47.01554" lon="5.59317">
        <ele>216.43396</ele>
        <time>2011-05-06T12:16:08Z</time>
      </trkpt>
      <trkpt lat="47.01544" lon="5.59333">
        <ele>216.914673</ele>
        <time>2011-05-06T12:16:10Z</time>
      </trkpt>
      <trkpt lat="47.01502" lon="5.59358">
        <ele>216.43396</ele>
        <time>2011-05-06T12:16:16Z</time>
      </trkpt>
      <trkpt lat="47.01379" lon="5.59409">
        <ele>217.395386</ele>
        <time>2011-05-06T12:16:32Z</time>
      </trkpt>
      <trkpt lat="47.01238" lon="5.59468">
        <ele>217.395386</ele>
        <time>2011-05-06T12:16:51Z</time>
      </trkpt>
      <trkpt lat="47.01088" lon="5.59521">
        <ele>217.395386</ele>
        <time>2011-05-06T12:17:11Z</time>
      </trkpt>
      <trkpt lat="47.00975" lon="5.59561">
        <ele>218.83728</ele>
        <time>2011-05-06T12:17:27Z</time>
      </trkpt>
      <trkpt lat="47.00828" lon="5.59612">
        <ele>218.356567</ele>
        <time>2011-05-06T12:17:47Z</time>
      </trkpt>
      <trkpt lat="47.0078" lon="5.59626">
        <ele>216.914673</ele>
        <time>2011-05-06T12:17:54Z</time>
      </trkpt>
      <trkpt lat="47.00759" lon="5.59597">
        <ele>217.395386</ele>
        <time>2011-05-06T12:17:59Z</time>
      </trkpt>
      <trkpt lat="47.00722" lon="5.59444">
        <ele>215.953247</ele>
        <time>2011-05-06T12:18:15Z</time>
      </trkpt>
      <trkpt lat="47.00638" lon="5.59297">
        <ele>214.991943</ele>
        <time>2011-05-06T12:18:35Z</time>
      </trkpt>
      <trkpt lat="47.00613" lon="5.59227">
        <ele>215.472656</ele>
        <time>2011-05-06T12:18:43Z</time>
      </trkpt>
      <trkpt lat="47.00571" lon="5.59182">
        <ele>215.953247</ele>
        <time>2011-05-06T12:18:51Z</time>
      </trkpt>
      <trkpt lat="47.00472" lon="5.59154">
        <ele>214.991943</ele>
        <time>2011-05-06T12:19:06Z</time>
      </trkpt>
      <trkpt lat="47.00367" lon="5.59118">
        <ele>215.472656</ele>
        <time>2011-05-06T12:19:22Z</time>
      </trkpt>
      <trkpt lat="47.0033" lon="5.5909">
        <ele>216.43396</ele>
        <time>2011-05-06T12:19:28Z</time>
      </trkpt>
      <trkpt lat="47.00318" lon="5.59082">
        <ele>216.43396</ele>
        <time>2011-05-06T12:19:30Z</time>
      </trkpt>
      <trkpt lat="47.00284" lon="5.5908">
        <ele>216.43396</ele>
        <time>2011-05-06T12:19:35Z</time>
      </trkpt>
      <trkpt lat="47.0015" lon="5.59134">
        <ele>217.395386</ele>
        <time>2011-05-06T12:19:54Z</time>
      </trkpt>
      <trkpt lat="46.99992" lon="5.59198">
        <ele>217.395386</ele>
        <time>2011-05-06T12:20:18Z</time>
      </trkpt>
      <trkpt lat="46.99857" lon="5.59229">
        <ele>216.914673</ele>
        <time>2011-05-06T12:20:37Z</time>
      </trkpt>
      <trkpt lat="46.99699" lon="5.59275">
        <ele>216.43396</ele>
        <time>2011-05-06T12:21:01Z</time>
      </trkpt>
      <trkpt lat="46.99506" lon="5.59332">
        <ele>217.395386</ele>
        <time>2011-05-06T12:21:30Z</time>
      </trkpt>
      <trkpt lat="46.99462" lon="5.59318">
        <ele>217.875977</ele>
        <time>2011-05-06T12:21:37Z</time>
      </trkpt>
      <trkpt lat="46.99392" lon="5.59219">
        <ele>218.356567</ele>
        <time>2011-05-06T12:21:52Z</time>
      </trkpt>
      <trkpt lat="46.99333" lon="5.59003">
        <ele>218.83728</ele>
        <time>2011-05-06T12:22:14Z</time>
      </trkpt>
      <trkpt lat="46.99268" lon="5.58842">
        <ele>220.279175</ele>
        <time>2011-05-06T12:22:32Z</time>
      </trkpt>
      <trkpt lat="46.99175" lon="5.58784">
        <ele>219.317993</ele>
        <time>2011-05-06T12:22:46Z</time>
      </trkpt>
      <trkpt lat="46.9901" lon="5.58702">
        <ele>217.875977</ele>
        <time>2011-05-06T12:23:11Z</time>
      </trkpt>
      <trkpt lat="46.98931" lon="5.58691">
        <ele>218.356567</ele>
        <time>2011-05-06T12:23:25Z</time>
      </trkpt>
      <trkpt lat="46.9892" lon="5.58686">
        <ele>219.317993</ele>
        <time>2011-05-06T12:23:27Z</time>
      </trkpt>
      <trkpt lat="46.98838" lon="5.5864">
        <ele>215.953247</ele>
        <time>2011-05-06T12:23:40Z</time>
      </trkpt>
      <trkpt lat="46.98738" lon="5.58584">
        <ele>216.914673</ele>
        <time>2011-05-06T12:23:56Z</time>
      </trkpt>
      <trkpt lat="46.98661" lon="5.58541">
        <ele>216.43396</ele>
        <time>2011-05-06T12:24:09Z</time>
      </trkpt>
      <trkpt lat="46.9863" lon="5.58544">
        <ele>216.914673</ele>
        <time>2011-05-06T12:24:16Z</time>
      </trkpt>
      <trkpt lat="46.98624" lon="5.58545">
        <ele>217.395386</ele>
        <time>2011-05-06T12:24:18Z</time>
      </trkpt>
      <trkpt lat="46.98602" lon="5.58512">
        <ele>218.356567</ele>
        <time>2011-05-06T12:24:27Z</time>
      </trkpt>
      <trkpt lat="46.98579" lon="5.58487">
        <ele>218.356567</ele>
        <time>2011-05-06T12:24:34Z</time>
      </trkpt>
      <trkpt lat="46.98565" lon="5.58464">
        <ele>218.356567</ele>
        <time>2011-05-06T12:24:39Z</time>
      </trkpt>
      <trkpt lat="46.98537" lon="5.58462">
        <ele>217.395386</ele>
        <time>2011-05-06T12:24:46Z</time>
      </trkpt>
      <trkpt lat="46.98528" lon="5.58465">
        <ele>217.395386</ele>
        <time>2011-05-06T12:24:48Z</time>
      </trkpt>
      <trkpt lat="46.98459" lon="5.58455">
        <ele>219.798584</ele>
        <time>2011-05-06T12:25:03Z</time>
      </trkpt>
      <trkpt lat="46.98454" lon="5.58455">
        <ele>220.279175</ele>
        <time>2011-05-06T12:25:04Z</time>
      </trkpt>
      <trkpt lat="46.98404" lon="5.58431">
        <ele>221.240601</ele>
        <time>2011-05-06T12:25:16Z</time>
      </trkpt>
      <trkpt lat="46.98344" lon="5.58375">
        <ele>225.085938</ele>
        <time>2011-05-06T12:25:33Z</time>
      </trkpt>
      <trkpt lat="46.98341" lon="5.58372">
        <ele>225.566528</ele>
        <time>2011-05-06T12:25:34Z</time>
      </trkpt>
      <trkpt lat="46.98305" lon="5.58332">
        <ele>228.931152</ele>
        <time>2011-05-06T12:25:46Z</time>
      </trkpt>
      <trkpt lat="46.98243" lon="5.58273">
        <ele>231.334351</ele>
        <time>2011-05-06T12:26:04Z</time>
      </trkpt>
      <trkpt lat="46.98173" lon="5.58187">
        <ele>233.25708</ele>
        <time>2011-05-06T12:26:24Z</time>
      </trkpt>
      <trkpt lat="46.98105" lon="5.58063">
        <ele>232.776489</ele>
        <time>2011-05-06T12:26:45Z</time>
      </trkpt>
      <trkpt lat="46.98084" lon="5.58067">
        <ele>231.814941</ele>
        <time>2011-05-06T12:26:50Z</time>
      </trkpt>
      <trkpt lat="46.98076" lon="5.58087">
        <ele>231.814941</ele>
        <time>2011-05-06T12:26:53Z</time>
      </trkpt>
      <trkpt lat="46.98015" lon="5.58189">
        <ele>229.892334</ele>
        <time>2011-05-06T12:27:07Z</time>
      </trkpt>
      <trkpt lat="46.97963" lon="5.58322">
        <ele>228.450439</ele>
        <time>2011-05-06T12:27:22Z</time>
      </trkpt>
      <trkpt lat="46.9793" lon="5.58424">
        <ele>230.373047</ele>
        <time>2011-05-06T12:27:34Z</time>
      </trkpt>
      <trkpt lat="46.97911" lon="5.58432">
        <ele>232.295776</ele>
        <time>2011-05-06T12:27:39Z</time>
      </trkpt>
      <trkpt lat="46.9784" lon="5.58424">
        <ele>236.140991</ele>
        <time>2011-05-06T12:27:54Z</time>
      </trkpt>
      <trkpt lat="46.97753" lon="5.58419">
        <ele>238.544312</ele>
        <time>2011-05-06T12:28:11Z</time>
      </trkpt>
      <trkpt lat="46.97622" lon="5.58348">
        <ele>240.947632</ele>
        <time>2011-05-06T12:28:36Z</time>
      </trkpt>
      <trkpt lat="46.97612" lon="5.58341">
        <ele>240.467041</ele>
        <time>2011-05-06T12:28:38Z</time>
      </trkpt>
      <trkpt lat="46.97521" lon="5.58271">
        <ele>242.389648</ele>
        <time>2011-05-06T12:28:57Z</time>
      </trkpt>
      <trkpt lat="46.97429" lon="5.58224">
        <ele>245.75415</ele>
        <time>2011-05-06T12:29:15Z</time>
      </trkpt>
      <trkpt lat="46.9741" lon="5.5822">
        <ele>244.312256</ele>
        <time>2011-05-06T12:29:19Z</time>
      </trkpt>
      <trkpt lat="46.97379" lon="5.58198">
        <ele>244.312256</ele>
        <time>2011-05-06T12:29:30Z</time>
      </trkpt>
      <trkpt lat="46.97365" lon="5.58158">
        <ele>244.792847</ele>
        <time>2011-05-06T12:29:39Z</time>
      </trkpt>
      <trkpt lat="46.97336" lon="5.58079">
        <ele>243.35083</ele>
        <time>2011-05-06T12:29:53Z</time>
      </trkpt>
      <trkpt lat="46.97288" lon="5.5795">
        <ele>239.986206</ele>
        <time>2011-05-06T12:30:10Z</time>
      </trkpt>
      <trkpt lat="46.97249" lon="5.57842">
        <ele>236.621704</ele>
        <time>2011-05-06T12:30:21Z</time>
      </trkpt>
      <trkpt lat="46.97172" lon="5.57633">
        <ele>236.140991</ele>
        <time>2011-05-06T12:30:42Z</time>
      </trkpt>
      <trkpt lat="46.97112" lon="5.57463">
        <ele>235.179688</ele>
        <time>2011-05-06T12:31:01Z</time>
      </trkpt>
      <trkpt lat="46.97095" lon="5.57423">
        <ele>233.737671</ele>
        <time>2011-05-06T12:31:06Z</time>
      </trkpt>
      <trkpt lat="46.9704" lon="5.57273">
        <ele>231.334351</ele>
        <time>2011-05-06T12:31:22Z</time>
      </trkpt>
      <trkpt lat="46.97009" lon="5.57179">
        <ele>229.892334</ele>
        <time>2011-05-06T12:31:32Z</time>
      </trkpt>
      <trkpt lat="46.97004" lon="5.57162">
        <ele>229.892334</ele>
        <time>2011-05-06T12:31:34Z</time>
      </trkpt>
      <trkpt lat="46.96972" lon="5.57079">
        <ele>229.892334</ele>
        <time>2011-05-06T12:31:44Z</time>
      </trkpt>
      <trkpt lat="46.96912" lon="5.56908">
        <ele>228.931152</ele>
        <time>2011-05-06T12:32:04Z</time>
      </trkpt>
      <trkpt lat="46.96906" lon="5.56893">
        <ele>228.931152</ele>
        <time>2011-05-06T12:32:06Z</time>
      </trkpt>
      <trkpt lat="46.96896" lon="5.56864">
        <ele>229.892334</ele>
        <time>2011-05-06T12:32:10Z</time>
      </trkpt>
      <trkpt lat="46.96872" lon="5.56804">
        <ele>231.334351</ele>
        <time>2011-05-06T12:32:20Z</time>
      </trkpt>
      <trkpt lat="46.96862" lon="5.56778">
        <ele>231.814941</ele>
        <time>2011-05-06T12:32:24Z</time>
      </trkpt>
      <trkpt lat="46.9681" lon="5.56636">
        <ele>231.814941</ele>
        <time>2011-05-06T12:32:42Z</time>
      </trkpt>
      <trkpt lat="46.96773" lon="5.56532">
        <ele>229.892334</ele>
        <time>2011-05-06T12:32:52Z</time>
      </trkpt>
      <trkpt lat="46.96745" lon="5.56458">
        <ele>227.969727</ele>
        <time>2011-05-06T12:32:59Z</time>
      </trkpt>
      <trkpt lat="46.96706" lon="5.56362">
        <ele>228.450439</ele>
        <time>2011-05-06T12:33:09Z</time>
      </trkpt>
      <trkpt lat="46.96661" lon="5.56234">
        <ele>229.411743</ele>
        <time>2011-05-06T12:33:24Z</time>
      </trkpt>
      <trkpt lat="46.96597" lon="5.56047">
        <ele>229.892334</ele>
        <time>2011-05-06T12:33:45Z</time>
      </trkpt>
      <trkpt lat="46.96565" lon="5.55954">
        <ele>229.411743</ele>
        <time>2011-05-06T12:33:55Z</time>
      </trkpt>
      <trkpt lat="46.96524" lon="5.5584">
        <ele>231.814941</ele>
        <time>2011-05-06T12:34:09Z</time>
      </trkpt>
      <trkpt lat="46.96463" lon="5.55663">
        <ele>234.699097</ele>
        <time>2011-05-06T12:34:31Z</time>
      </trkpt>
      <trkpt lat="46.96435" lon="5.55583">
        <ele>236.621704</ele>
        <time>2011-05-06T12:34:42Z</time>
      </trkpt>
      <trkpt lat="46.96429" lon="5.55559">
        <ele>236.621704</ele>
        <time>2011-05-06T12:34:45Z</time>
      </trkpt>
      <trkpt lat="46.96399" lon="5.55476">
        <ele>238.544312</ele>
        <time>2011-05-06T12:34:56Z</time>
      </trkpt>
      <trkpt lat="46.96392" lon="5.55452">
        <ele>238.544312</ele>
        <time>2011-05-06T12:34:59Z</time>
      </trkpt>
      <trkpt lat="46.96358" lon="5.55354">
        <ele>240.947632</ele>
        <time>2011-05-06T12:35:12Z</time>
      </trkpt>
      <trkpt lat="46.96303" lon="5.55186">
        <ele>243.35083</ele>
        <time>2011-05-06T12:35:32Z</time>
      </trkpt>
      <trkpt lat="46.96233" lon="5.54975">
        <ele>244.312256</ele>
        <time>2011-05-06T12:35:56Z</time>
      </trkpt>
      <trkpt lat="46.96151" lon="5.54726">
        <ele>244.792847</ele>
        <time>2011-05-06T12:36:24Z</time>
      </trkpt>
      <trkpt lat="46.961" lon="5.54528">
        <ele>245.273438</ele>
        <time>2011-05-06T12:36:47Z</time>
      </trkpt>
      <trkpt lat="46.9608" lon="5.54459">
        <ele>245.75415</ele>
        <time>2011-05-06T12:36:55Z</time>
      </trkpt>
      <trkpt lat="46.96035" lon="5.54289">
        <ele>244.312256</ele>
        <time>2011-05-06T12:37:13Z</time>
      </trkpt>
      <trkpt lat="46.95993" lon="5.54131">
        <ele>242.870239</ele>
        <time>2011-05-06T12:37:30Z</time>
      </trkpt>
      <trkpt lat="46.95969" lon="5.54041">
        <ele>245.75415</ele>
        <time>2011-05-06T12:37:42Z</time>
      </trkpt>
      <trkpt lat="46.95951" lon="5.53977">
        <ele>245.75415</ele>
        <time>2011-05-06T12:37:50Z</time>
      </trkpt>
      <trkpt lat="46.95914" lon="5.53852">
        <ele>244.792847</ele>
        <time>2011-05-06T12:38:05Z</time>
      </trkpt>
      <trkpt lat="46.95874" lon="5.53699">
        <ele>242.389648</ele>
        <time>2011-05-06T12:38:21Z</time>
      </trkpt>
      <trkpt lat="46.95824" lon="5.53524">
        <ele>239.986206</ele>
        <time>2011-05-06T12:38:37Z</time>
      </trkpt>
      <trkpt lat="46.9576" lon="5.53269">
        <ele>237.102295</ele>
        <time>2011-05-06T12:38:57Z</time>
      </trkpt>
      <trkpt lat="46.9574" lon="5.53204">
        <ele>237.102295</ele>
        <time>2011-05-06T12:39:02Z</time>
      </trkpt>
      <trkpt lat="46.9573" lon="5.53179">
        <ele>236.140991</ele>
        <time>2011-05-06T12:39:04Z</time>
      </trkpt>
      <trkpt lat="46.95665" lon="5.5304">
        <ele>233.737671</ele>
        <time>2011-05-06T12:39:16Z</time>
      </trkpt>
      <trkpt lat="46.95645" lon="5.52993">
        <ele>232.776489</ele>
        <time>2011-05-06T12:39:20Z</time>
      </trkpt>
      <trkpt lat="46.95556" lon="5.52797">
        <ele>232.295776</ele>
        <time>2011-05-06T12:39:39Z</time>
      </trkpt>
      <trkpt lat="46.95452" lon="5.52574">
        <ele>229.411743</ele>
        <time>2011-05-06T12:40:01Z</time>
      </trkpt>
      <trkpt lat="46.9543" lon="5.52523">
        <ele>228.931152</ele>
        <time>2011-05-06T12:40:06Z</time>
      </trkpt>
      <trkpt lat="46.95417" lon="5.52496">
        <ele>228.931152</ele>
        <time>2011-05-06T12:40:09Z</time>
      </trkpt>
      <trkpt lat="46.95411" lon="5.52477">
        <ele>227.489136</ele>
        <time>2011-05-06T12:40:11Z</time>
      </trkpt>
      <trkpt lat="46.9537" lon="5.52327">
        <ele>226.527832</ele>
        <time>2011-05-06T12:40:25Z</time>
      </trkpt>
      <trkpt lat="46.95319" lon="5.5212">
        <ele>223.643799</ele>
        <time>2011-05-06T12:40:42Z</time>
      </trkpt>
      <trkpt lat="46.95281" lon="5.5198">
        <ele>220.759888</ele>
        <time>2011-05-06T12:40:53Z</time>
      </trkpt>
      <trkpt lat="46.95274" lon="5.51955">
        <ele>219.798584</ele>
        <time>2011-05-06T12:40:55Z</time>
      </trkpt>
      <trkpt lat="46.9524" lon="5.51825">
        <ele>216.43396</ele>
        <time>2011-05-06T12:41:05Z</time>
      </trkpt>
      <trkpt lat="46.95194" lon="5.5165">
        <ele>213.550049</ele>
        <time>2011-05-06T12:41:19Z</time>
      </trkpt>
      <trkpt lat="46.95125" lon="5.51389">
        <ele>214.991943</ele>
        <time>2011-05-06T12:41:42Z</time>
      </trkpt>
      <trkpt lat="46.95026" lon="5.51018">
        <ele>213.550049</ele>
        <time>2011-05-06T12:42:16Z</time>
      </trkpt>
      <trkpt lat="46.9496" lon="5.50771">
        <ele>214.51123</ele>
        <time>2011-05-06T12:42:40Z</time>
      </trkpt>
      <trkpt lat="46.94935" lon="5.50638">
        <ele>215.953247</ele>
        <time>2011-05-06T12:42:56Z</time>
      </trkpt>
      <trkpt lat="46.94951" lon="5.505">
        <ele>218.83728</ele>
        <time>2011-05-06T12:43:11Z</time>
      </trkpt>
      <trkpt lat="46.94967" lon="5.50423">
        <ele>222.201782</ele>
        <time>2011-05-06T12:43:20Z</time>
      </trkpt>
      <trkpt lat="46.94985" lon="5.50327">
        <ele>223.163208</ele>
        <time>2011-05-06T12:43:32Z</time>
      </trkpt>
      <trkpt lat="46.95001" lon="5.50249">
        <ele>224.605225</ele>
        <time>2011-05-06T12:43:47Z</time>
      </trkpt>
      <trkpt lat="46.95" lon="5.5021">
        <ele>224.605225</ele>
        <time>2011-05-06T12:44:00Z</time>
      </trkpt>
      <trkpt lat="46.94998" lon="5.50137">
        <ele>224.124512</ele>
        <time>2011-05-06T12:44:14Z</time>
      </trkpt>
      <trkpt lat="46.94998" lon="5.50128">
        <ele>223.163208</ele>
        <time>2011-05-06T12:44:28Z</time>
      </trkpt>
      <trkpt lat="46.94997" lon="5.50127">
        <ele>223.163208</ele>
        <time>2011-05-06T12:46:09Z</time>
      </trkpt>
      <trkpt lat="46.94997" lon="5.50097">
        <ele>223.643799</ele>
        <time>2011-05-06T12:47:28Z</time>
      </trkpt>
      <trkpt lat="46.94994" lon="5.50046">
        <ele>224.124512</ele>
        <time>2011-05-06T12:47:37Z</time>
      </trkpt>
      <trkpt lat="46.94985" lon="5.49964">
        <ele>223.163208</ele>
        <time>2011-05-06T12:47:49Z</time>
      </trkpt>
      <trkpt lat="46.94972" lon="5.49935">
        <ele>222.682495</ele>
        <time>2011-05-06T12:47:54Z</time>
      </trkpt>
      <trkpt lat="46.94894" lon="5.499">
        <ele>222.682495</ele>
        <time>2011-05-06T12:48:10Z</time>
      </trkpt>
      <trkpt lat="46.9479" lon="5.49854">
        <ele>223.643799</ele>
        <time>2011-05-06T12:48:32Z</time>
      </trkpt>
      <trkpt lat="46.94673" lon="5.49809">
        <ele>224.605225</ele>
        <time>2011-05-06T12:48:53Z</time>
      </trkpt>
      <trkpt lat="46.9451" lon="5.49753">
        <ele>224.124512</ele>
        <time>2011-05-06T12:49:21Z</time>
      </trkpt>
      <trkpt lat="46.94403" lon="5.49684">
        <ele>224.124512</ele>
        <time>2011-05-06T12:49:40Z</time>
      </trkpt>
      <trkpt lat="46.9427" lon="5.49541">
        <ele>223.643799</ele>
        <time>2011-05-06T12:50:05Z</time>
      </trkpt>
      <trkpt lat="46.94236" lon="5.49506">
        <ele>222.682495</ele>
        <time>2011-05-06T12:50:11Z</time>
      </trkpt>
      <trkpt lat="46.94062" lon="5.49326">
        <ele>223.163208</ele>
        <time>2011-05-06T12:50:40Z</time>
      </trkpt>
      <trkpt lat="46.9395" lon="5.49201">
        <ele>223.163208</ele>
        <time>2011-05-06T12:51:01Z</time>
      </trkpt>
      <trkpt lat="46.9384" lon="5.49074">
        <ele>221.240601</ele>
        <time>2011-05-06T12:51:21Z</time>
      </trkpt>
      <trkpt lat="46.93723" lon="5.48942">
        <ele>219.317993</ele>
        <time>2011-05-06T12:51:41Z</time>
      </trkpt>
      <trkpt lat="46.93602" lon="5.48798">
        <ele>220.759888</ele>
        <time>2011-05-06T12:52:03Z</time>
      </trkpt>
      <trkpt lat="46.93536" lon="5.48675">
        <ele>221.240601</ele>
        <time>2011-05-06T12:52:18Z</time>
      </trkpt>
      <trkpt lat="46.93469" lon="5.48601">
        <ele>217.875977</ele>
        <time>2011-05-06T12:52:28Z</time>
      </trkpt>
      <trkpt lat="46.93352" lon="5.48493">
        <ele>216.914673</ele>
        <time>2011-05-06T12:52:45Z</time>
      </trkpt>
      <trkpt lat="46.93265" lon="5.48424">
        <ele>218.356567</ele>
        <time>2011-05-06T12:52:59Z</time>
      </trkpt>
      <trkpt lat="46.93232" lon="5.48398">
        <ele>217.875977</ele>
        <time>2011-05-06T12:53:04Z</time>
      </trkpt>
      <trkpt lat="46.93212" lon="5.4838">
        <ele>218.356567</ele>
        <time>2011-05-06T12:53:07Z</time>
      </trkpt>
      <trkpt lat="46.93133" lon="5.48276">
        <ele>219.317993</ele>
        <time>2011-05-06T12:53:21Z</time>
      </trkpt>
      <trkpt lat="46.93038" lon="5.4813">
        <ele>220.279175</ele>
        <time>2011-05-06T12:53:40Z</time>
      </trkpt>
      <trkpt lat="46.93009" lon="5.48095">
        <ele>219.798584</ele>
        <time>2011-05-06T12:53:45Z</time>
      </trkpt>
      <trkpt lat="46.92992" lon="5.48075">
        <ele>219.798584</ele>
        <time>2011-05-06T12:53:48Z</time>
      </trkpt>
      <trkpt lat="46.92976" lon="5.48056">
        <ele>220.279175</ele>
        <time>2011-05-06T12:53:51Z</time>
      </trkpt>
      <trkpt lat="46.92939" lon="5.47991">
        <ele>220.279175</ele>
        <time>2011-05-06T12:53:59Z</time>
      </trkpt>
      <trkpt lat="46.92859" lon="5.47876">
        <ele>218.83728</ele>
        <time>2011-05-06T12:54:14Z</time>
      </trkpt>
      <trkpt lat="46.92794" lon="5.47755">
        <ele>215.472656</ele>
        <time>2011-05-06T12:54:27Z</time>
      </trkpt>
      <trkpt lat="46.92662" lon="5.47551">
        <ele>214.03064</ele>
        <time>2011-05-06T12:54:53Z</time>
      </trkpt>
      <trkpt lat="46.92549" lon="5.47394">
        <ele>211.146729</ele>
        <time>2011-05-06T12:55:13Z</time>
      </trkpt>
      <trkpt lat="46.92455" lon="5.47272">
        <ele>213.550049</ele>
        <time>2011-05-06T12:55:33Z</time>
      </trkpt>
      <trkpt lat="46.92353" lon="5.47142">
        <ele>216.914673</ele>
        <time>2011-05-06T12:55:55Z</time>
      </trkpt>
      <trkpt lat="46.92215" lon="5.46975">
        <ele>217.875977</ele>
        <time>2011-05-06T12:56:23Z</time>
      </trkpt>
      <trkpt lat="46.92192" lon="5.46943">
        <ele>217.875977</ele>
        <time>2011-05-06T12:56:28Z</time>
      </trkpt>
      <trkpt lat="46.9212" lon="5.4686">
        <ele>215.953247</ele>
        <time>2011-05-06T12:56:40Z</time>
      </trkpt>
      <trkpt lat="46.92077" lon="5.46803">
        <ele>215.472656</ele>
        <time>2011-05-06T12:56:47Z</time>
      </trkpt>
      <trkpt lat="46.92005" lon="5.46705">
        <ele>216.43396</ele>
        <time>2011-05-06T12:57:01Z</time>
      </trkpt>
      <trkpt lat="46.91987" lon="5.46679">
        <ele>217.395386</ele>
        <time>2011-05-06T12:57:05Z</time>
      </trkpt>
      <trkpt lat="46.91936" lon="5.46609">
        <ele>221.721191</ele>
        <time>2011-05-06T12:57:15Z</time>
      </trkpt>
      <trkpt lat="46.9191" lon="5.46574">
        <ele>216.914673</ele>
        <time>2011-05-06T12:57:20Z</time>
      </trkpt>
      <trkpt lat="46.9184" lon="5.46479">
        <ele>213.550049</ele>
        <time>2011-05-06T12:57:32Z</time>
      </trkpt>
      <trkpt lat="46.91804" lon="5.4643">
        <ele>213.069336</ele>
        <time>2011-05-06T12:57:38Z</time>
      </trkpt>
      <trkpt lat="46.9177" lon="5.46382">
        <ele>211.627441</ele>
        <time>2011-05-06T12:57:44Z</time>
      </trkpt>
      <trkpt lat="46.91672" lon="5.463">
        <ele>209.704834</ele>
        <time>2011-05-06T12:57:58Z</time>
      </trkpt>
      <trkpt lat="46.91601" lon="5.46266">
        <ele>206.340088</ele>
        <time>2011-05-06T12:58:07Z</time>
      </trkpt>
      <trkpt lat="46.91594" lon="5.46262">
        <ele>205.859497</ele>
        <time>2011-05-06T12:58:08Z</time>
      </trkpt>
      <trkpt lat="46.91581" lon="5.46252">
        <ele>204.898071</ele>
        <time>2011-05-06T12:58:10Z</time>
      </trkpt>
      <trkpt lat="46.91564" lon="5.46217">
        <ele>204.898071</ele>
        <time>2011-05-06T12:58:14Z</time>
      </trkpt>
      <trkpt lat="46.91532" lon="5.46095">
        <ele>206.820679</ele>
        <time>2011-05-06T12:58:26Z</time>
      </trkpt>
      <trkpt lat="46.91517" lon="5.46049">
        <ele>206.820679</ele>
        <time>2011-05-06T12:58:31Z</time>
      </trkpt>
      <trkpt lat="46.91475" lon="5.45931">
        <ele>208.262817</ele>
        <time>2011-05-06T12:58:45Z</time>
      </trkpt>
      <trkpt lat="46.91473" lon="5.45923">
        <ele>208.262817</ele>
        <time>2011-05-06T12:58:46Z</time>
      </trkpt>
      <trkpt lat="46.91473" lon="5.45891">
        <ele>210.666016</ele>
        <time>2011-05-06T12:58:50Z</time>
      </trkpt>
      <trkpt lat="46.91483" lon="5.45842">
        <ele>214.03064</ele>
        <time>2011-05-06T12:58:56Z</time>
      </trkpt>
      <trkpt lat="46.91511" lon="5.45758">
        <ele>214.03064</ele>
        <time>2011-05-06T12:59:12Z</time>
      </trkpt>
      <trkpt lat="46.91547" lon="5.45703">
        <ele>214.03064</ele>
        <time>2011-05-06T12:59:29Z</time>
      </trkpt>
      <trkpt lat="46.91609" lon="5.45613">
        <ele>215.472656</ele>
        <time>2011-05-06T12:59:46Z</time>
      </trkpt>
      <trkpt lat="46.91676" lon="5.45481">
        <ele>217.395386</ele>
        <time>2011-05-06T13:00:05Z</time>
      </trkpt>
      <trkpt lat="46.91738" lon="5.45352">
        <ele>214.51123</ele>
        <time>2011-05-06T13:00:21Z</time>
      </trkpt>
      <trkpt lat="46.91811" lon="5.45265">
        <ele>214.03064</ele>
        <time>2011-05-06T13:00:33Z</time>
      </trkpt>
      <trkpt lat="46.9187" lon="5.45173">
        <ele>214.51123</ele>
        <time>2011-05-06T13:00:45Z</time>
      </trkpt>
      <trkpt lat="46.91964" lon="5.45106">
        <ele>215.953247</ele>
        <time>2011-05-06T13:01:00Z</time>
      </trkpt>
      <trkpt lat="46.92054" lon="5.45018">
        <ele>217.395386</ele>
        <time>2011-05-06T13:01:15Z</time>
      </trkpt>
      <trkpt lat="46.92172" lon="5.44932">
        <ele>217.395386</ele>
        <time>2011-05-06T13:01:34Z</time>
      </trkpt>
      <trkpt lat="46.92316" lon="5.44835">
        <ele>217.875977</ele>
        <time>2011-05-06T13:01:56Z</time>
      </trkpt>
      <trkpt lat="46.9239" lon="5.44722">
        <ele>218.356567</ele>
        <time>2011-05-06T13:02:11Z</time>
      </trkpt>
      <trkpt lat="46.9248" lon="5.44579">
        <ele>216.914673</ele>
        <time>2011-05-06T13:02:31Z</time>
      </trkpt>
      <trkpt lat="46.92556" lon="5.44452">
        <ele>216.914673</ele>
        <time>2011-05-06T13:02:51Z</time>
      </trkpt>
      <trkpt lat="46.92618" lon="5.44293">
        <ele>218.356567</ele>
        <time>2011-05-06T13:03:11Z</time>
      </trkpt>
      <trkpt lat="46.92696" lon="5.44086">
        <ele>218.356567</ele>
        <time>2011-05-06T13:03:34Z</time>
      </trkpt>
      <trkpt lat="46.92706" lon="5.44069">
        <ele>218.356567</ele>
        <time>2011-05-06T13:03:36Z</time>
      </trkpt>
      <trkpt lat="46.92784" lon="5.43985">
        <ele>217.875977</ele>
        <time>2011-05-06T13:03:49Z</time>
      </trkpt>
      <trkpt lat="46.92831" lon="5.43864">
        <ele>218.83728</ele>
        <time>2011-05-06T13:04:02Z</time>
      </trkpt>
      <trkpt lat="46.9292" lon="5.43563">
        <ele>219.798584</ele>
        <time>2011-05-06T13:04:33Z</time>
      </trkpt>
      <trkpt lat="46.92963" lon="5.43362">
        <ele>217.395386</ele>
        <time>2011-05-06T13:04:51Z</time>
      </trkpt>
      <trkpt lat="46.92973" lon="5.43329">
        <ele>216.914673</ele>
        <time>2011-05-06T13:04:54Z</time>
      </trkpt>
      <trkpt lat="46.93002" lon="5.43283">
        <ele>215.953247</ele>
        <time>2011-05-06T13:04:59Z</time>
      </trkpt>
      <trkpt lat="46.93072" lon="5.43213">
        <ele>216.914673</ele>
        <time>2011-05-06T13:05:09Z</time>
      </trkpt>
      <trkpt lat="46.93201" lon="5.43074">
        <ele>215.472656</ele>
        <time>2011-05-06T13:05:26Z</time>
      </trkpt>
      <trkpt lat="46.93227" lon="5.4305">
        <ele>213.550049</ele>
        <time>2011-05-06T13:05:29Z</time>
      </trkpt>
      <trkpt lat="46.93408" lon="5.42894">
        <ele>212.108032</ele>
        <time>2011-05-06T13:05:50Z</time>
      </trkpt>
      <trkpt lat="46.9354" lon="5.42797">
        <ele>213.069336</ele>
        <time>2011-05-06T13:06:05Z</time>
      </trkpt>
      <trkpt lat="46.93612" lon="5.42746">
        <ele>212.108032</ele>
        <time>2011-05-06T13:06:13Z</time>
      </trkpt>
      <trkpt lat="46.93651" lon="5.42735">
        <ele>212.108032</ele>
        <time>2011-05-06T13:06:17Z</time>
      </trkpt>
      <trkpt lat="46.93798" lon="5.42732">
        <ele>211.146729</ele>
        <time>2011-05-06T13:06:32Z</time>
      </trkpt>
      <trkpt lat="46.93845" lon="5.42711">
        <ele>210.666016</ele>
        <time>2011-05-06T13:06:37Z</time>
      </trkpt>
      <trkpt lat="46.93871" lon="5.42688">
        <ele>210.666016</ele>
        <time>2011-05-06T13:06:40Z</time>
      </trkpt>
      <trkpt lat="46.93892" lon="5.42657">
        <ele>212.108032</ele>
        <time>2011-05-06T13:06:43Z</time>
      </trkpt>
      <trkpt lat="46.93982" lon="5.42509">
        <ele>213.069336</ele>
        <time>2011-05-06T13:06:58Z</time>
      </trkpt>
      <trkpt lat="46.94041" lon="5.42436">
        <ele>215.953247</ele>
        <time>2011-05-06T13:07:08Z</time>
      </trkpt>
      <trkpt lat="46.94056" lon="5.42417">
        <ele>217.395386</ele>
        <time>2011-05-06T13:07:11Z</time>
      </trkpt>
      <trkpt lat="46.94128" lon="5.42306">
        <ele>219.798584</ele>
        <time>2011-05-06T13:07:28Z</time>
      </trkpt>
      <trkpt lat="46.94224" lon="5.42134">
        <ele>217.875977</ele>
        <time>2011-05-06T13:07:51Z</time>
      </trkpt>
      <trkpt lat="46.94298" lon="5.42002">
        <ele>217.395386</ele>
        <time>2011-05-06T13:08:06Z</time>
      </trkpt>
      <trkpt lat="46.94391" lon="5.41833">
        <ele>216.914673</ele>
        <time>2011-05-06T13:08:27Z</time>
      </trkpt>
      <trkpt lat="46.94427" lon="5.41748">
        <ele>216.914673</ele>
        <time>2011-05-06T13:08:41Z</time>
      </trkpt>
      <trkpt lat="46.94448" lon="5.41691">
        <ele>217.875977</ele>
        <time>2011-05-06T13:08:47Z</time>
      </trkpt>
      <trkpt lat="46.94493" lon="5.41591">
        <ele>215.953247</ele>
        <time>2011-05-06T13:08:59Z</time>
      </trkpt>
      <trkpt lat="46.94508" lon="5.41581">
        <ele>216.43396</ele>
        <time>2011-05-06T13:09:03Z</time>
      </trkpt>
      <trkpt lat="46.94541" lon="5.4157">
        <ele>216.914673</ele>
        <time>2011-05-06T13:09:09Z</time>
      </trkpt>
      <trkpt lat="46.9461" lon="5.41503">
        <ele>218.356567</ele>
        <time>2011-05-06T13:09:21Z</time>
      </trkpt>
      <trkpt lat="46.94658" lon="5.41449">
        <ele>214.991943</ele>
        <time>2011-05-06T13:09:29Z</time>
      </trkpt>
      <trkpt lat="46.94664" lon="5.41442">
        <ele>214.991943</ele>
        <time>2011-05-06T13:09:30Z</time>
      </trkpt>
      <trkpt lat="46.94774" lon="5.4132">
        <ele>214.51123</ele>
        <time>2011-05-06T13:09:47Z</time>
      </trkpt>
      <trkpt lat="46.94901" lon="5.41177">
        <ele>211.627441</ele>
        <time>2011-05-06T13:10:05Z</time>
      </trkpt>
      <trkpt lat="46.94999" lon="5.4112">
        <ele>208.262817</ele>
        <time>2011-05-06T13:10:16Z</time>
      </trkpt>
      <trkpt lat="46.9509" lon="5.41068">
        <ele>204.898071</ele>
        <time>2011-05-06T13:10:25Z</time>
      </trkpt>
      <trkpt lat="46.95111" lon="5.41056">
        <ele>201.533569</ele>
        <time>2011-05-06T13:10:27Z</time>
      </trkpt>
      <trkpt lat="46.95122" lon="5.41049">
        <ele>201.533569</ele>
        <time>2011-05-06T13:10:28Z</time>
      </trkpt>
      <trkpt lat="46.95181" lon="5.41014">
        <ele>199.130127</ele>
        <time>2011-05-06T13:10:33Z</time>
      </trkpt>
      <trkpt lat="46.9524" lon="5.40979">
        <ele>195.284912</ele>
        <time>2011-05-06T13:10:38Z</time>
      </trkpt>
      <trkpt lat="46.95349" lon="5.40915">
        <ele>192.401123</ele>
        <time>2011-05-06T13:10:48Z</time>
      </trkpt>
      <trkpt lat="46.95432" lon="5.40852">
        <ele>193.843018</ele>
        <time>2011-05-06T13:10:57Z</time>
      </trkpt>
      <trkpt lat="46.95517" lon="5.40788">
        <ele>190.478394</ele>
        <time>2011-05-06T13:11:07Z</time>
      </trkpt>
      <trkpt lat="46.9567" lon="5.40696">
        <ele>189.997681</ele>
        <time>2011-05-06T13:11:26Z</time>
      </trkpt>
      <trkpt lat="46.95813" lon="5.40627">
        <ele>189.997681</ele>
        <time>2011-05-06T13:11:44Z</time>
      </trkpt>
      <trkpt lat="46.95859" lon="5.40608">
        <ele>190.478394</ele>
        <time>2011-05-06T13:11:50Z</time>
      </trkpt>
      <trkpt lat="46.95881" lon="5.40597">
        <ele>189.997681</ele>
        <time>2011-05-06T13:11:57Z</time>
      </trkpt>
      <trkpt lat="46.95899" lon="5.40591">
        <ele>189.997681</ele>
        <time>2011-05-06T13:12:03Z</time>
      </trkpt>
      <trkpt lat="46.95954" lon="5.40608">
        <ele>189.516968</ele>
        <time>2011-05-06T13:12:18Z</time>
      </trkpt>
      <trkpt lat="46.9604" lon="5.40625">
        <ele>189.997681</ele>
        <time>2011-05-06T13:12:33Z</time>
      </trkpt>
      <trkpt lat="46.96201" lon="5.40657">
        <ele>191.439575</ele>
        <time>2011-05-06T13:12:53Z</time>
      </trkpt>
      <trkpt lat="46.96442" lon="5.40707">
        <ele>190.478394</ele>
        <time>2011-05-06T13:13:22Z</time>
      </trkpt>
      <trkpt lat="46.96609" lon="5.40741">
        <ele>192.401123</ele>
        <time>2011-05-06T13:13:44Z</time>
      </trkpt>
      <trkpt lat="46.9667" lon="5.40697">
        <ele>192.881714</ele>
        <time>2011-05-06T13:13:54Z</time>
      </trkpt>
      <trkpt lat="46.96708" lon="5.40625">
        <ele>193.362305</ele>
        <time>2011-05-06T13:14:03Z</time>
      </trkpt>
      <trkpt lat="46.96718" lon="5.40613">
        <ele>192.401123</ele>
        <time>2011-05-06T13:14:05Z</time>
      </trkpt>
      <trkpt lat="46.96744" lon="5.40608">
        <ele>192.401123</ele>
        <time>2011-05-06T13:14:09Z</time>
      </trkpt>
      <trkpt lat="46.96818" lon="5.4062">
        <ele>190.958984</ele>
        <time>2011-05-06T13:14:23Z</time>
      </trkpt>
      <trkpt lat="46.96822" lon="5.40622">
        <ele>190.958984</ele>
        <time>2011-05-06T13:14:25Z</time>
      </trkpt>
      <trkpt lat="46.96833" lon="5.40606">
        <ele>190.958984</ele>
        <time>2011-05-06T13:14:30Z</time>
      </trkpt>
      <trkpt lat="46.96836" lon="5.40595">
        <ele>190.958984</ele>
        <time>2011-05-06T13:14:32Z</time>
      </trkpt>
      <trkpt lat="46.96856" lon="5.40581">
        <ele>190.958984</ele>
        <time>2011-05-06T13:14:37Z</time>
      </trkpt>
      <trkpt lat="46.96896" lon="5.40584">
        <ele>191.439575</ele>
        <time>2011-05-06T13:14:44Z</time>
      </trkpt>
      <trkpt lat="46.96909" lon="5.4056">
        <ele>191.920288</ele>
        <time>2011-05-06T13:14:50Z</time>
      </trkpt>
      <trkpt lat="46.96895" lon="5.40576">
        <ele>191.920288</ele>
        <time>2011-05-06T13:14:55Z</time>
      </trkpt>
      <trkpt lat="46.96905" lon="5.40592">
        <ele>191.439575</ele>
        <time>2011-05-06T13:14:59Z</time>
      </trkpt>
      <trkpt lat="46.96912" lon="5.40599">
        <ele>190.958984</ele>
        <time>2011-05-06T13:15:01Z</time>
      </trkpt>
      <trkpt lat="46.96919" lon="5.4061">
        <ele>190.478394</ele>
        <time>2011-05-06T13:15:03Z</time>
      </trkpt>
      <trkpt lat="46.96941" lon="5.40631">
        <ele>190.478394</ele>
        <time>2011-05-06T13:15:08Z</time>
      </trkpt>
      <trkpt lat="46.96952" lon="5.40637">
        <ele>190.958984</ele>
        <time>2011-05-06T13:15:10Z</time>
      </trkpt>
      <trkpt lat="46.97042" lon="5.40644">
        <ele>190.958984</ele>
        <time>2011-05-06T13:15:24Z</time>
      </trkpt>
      <trkpt lat="46.9719" lon="5.40643">
        <ele>190.958984</ele>
        <time>2011-05-06T13:15:44Z</time>
      </trkpt>
      <trkpt lat="46.97381" lon="5.40679">
        <ele>191.920288</ele>
        <time>2011-05-06T13:16:09Z</time>
      </trkpt>
      <trkpt lat="46.9756" lon="5.40715">
        <ele>191.920288</ele>
        <time>2011-05-06T13:16:32Z</time>
      </trkpt>
      <trkpt lat="46.97736" lon="5.40749">
        <ele>193.843018</ele>
        <time>2011-05-06T13:16:54Z</time>
      </trkpt>
      <trkpt lat="46.97827" lon="5.40766">
        <ele>193.843018</ele>
        <time>2011-05-06T13:17:05Z</time>
      </trkpt>
      <trkpt lat="46.97907" lon="5.40727">
        <ele>192.881714</ele>
        <time>2011-05-06T13:17:15Z</time>
      </trkpt>
      <trkpt lat="46.98" lon="5.40729">
        <ele>192.881714</ele>
        <time>2011-05-06T13:17:26Z</time>
      </trkpt>
      <trkpt lat="46.98161" lon="5.40776">
        <ele>193.362305</ele>
        <time>2011-05-06T13:17:45Z</time>
      </trkpt>
      <trkpt lat="46.98275" lon="5.40823">
        <ele>193.843018</ele>
        <time>2011-05-06T13:17:59Z</time>
      </trkpt>
      <trkpt lat="46.98331" lon="5.40803">
        <ele>194.32373</ele>
        <time>2011-05-06T13:18:06Z</time>
      </trkpt>
      <trkpt lat="46.98438" lon="5.40643">
        <ele>192.401123</ele>
        <time>2011-05-06T13:18:24Z</time>
      </trkpt>
      <trkpt lat="46.98474" lon="5.40615">
        <ele>192.401123</ele>
        <time>2011-05-06T13:18:29Z</time>
      </trkpt>
      <trkpt lat="46.98621" lon="5.40579">
        <ele>193.843018</ele>
        <time>2011-05-06T13:18:46Z</time>
      </trkpt>
      <trkpt lat="46.98798" lon="5.40563">
        <ele>193.362305</ele>
        <time>2011-05-06T13:19:04Z</time>
      </trkpt>
      <trkpt lat="46.98888" lon="5.40559">
        <ele>192.881714</ele>
        <time>2011-05-06T13:19:13Z</time>
      </trkpt>
      <trkpt lat="46.99009" lon="5.40633">
        <ele>193.843018</ele>
        <time>2011-05-06T13:19:26Z</time>
      </trkpt>
      <trkpt lat="46.99159" lon="5.40695">
        <ele>193.843018</ele>
        <time>2011-05-06T13:19:41Z</time>
      </trkpt>
      <trkpt lat="46.99261" lon="5.40675">
        <ele>194.32373</ele>
        <time>2011-05-06T13:19:52Z</time>
      </trkpt>
      <trkpt lat="46.99374" lon="5.40661">
        <ele>193.362305</ele>
        <time>2011-05-06T13:20:06Z</time>
      </trkpt>
      <trkpt lat="46.99441" lon="5.4063">
        <ele>194.804321</ele>
        <time>2011-05-06T13:20:15Z</time>
      </trkpt>
      <trkpt lat="46.99563" lon="5.40556">
        <ele>194.804321</ele>
        <time>2011-05-06T13:20:31Z</time>
      </trkpt>
      <trkpt lat="46.99644" lon="5.4047">
        <ele>194.804321</ele>
        <time>2011-05-06T13:20:45Z</time>
      </trkpt>
      <trkpt lat="46.99748" lon="5.40326">
        <ele>194.804321</ele>
        <time>2011-05-06T13:21:05Z</time>
      </trkpt>
      <trkpt lat="46.99825" lon="5.40295">
        <ele>194.32373</ele>
        <time>2011-05-06T13:21:16Z</time>
      </trkpt>
      <trkpt lat="46.99866" lon="5.40275">
        <ele>194.804321</ele>
        <time>2011-05-06T13:21:22Z</time>
      </trkpt>
      <trkpt lat="46.99982" lon="5.40174">
        <ele>193.843018</ele>
        <time>2011-05-06T13:21:40Z</time>
      </trkpt>
      <trkpt lat="47.00012" lon="5.40161">
        <ele>194.804321</ele>
        <time>2011-05-06T13:21:44Z</time>
      </trkpt>
      <trkpt lat="47.00035" lon="5.40136">
        <ele>196.246338</ele>
        <time>2011-05-06T13:21:48Z</time>
      </trkpt>
      <trkpt lat="47.00047" lon="5.40073">
        <ele>196.246338</ele>
        <time>2011-05-06T13:21:54Z</time>
      </trkpt>
      <trkpt lat="47.00046" lon="5.40041">
        <ele>196.246338</ele>
        <time>2011-05-06T13:21:57Z</time>
      </trkpt>
      <trkpt lat="47.00043" lon="5.4002">
        <ele>196.246338</ele>
        <time>2011-05-06T13:21:59Z</time>
      </trkpt>
      <trkpt lat="46.99973" lon="5.39866">
        <ele>196.726929</ele>
        <time>2011-05-06T13:22:17Z</time>
      </trkpt>
      <trkpt lat="46.9995" lon="5.39802">
        <ele>195.765625</ele>
        <time>2011-05-06T13:22:24Z</time>
      </trkpt>
      <trkpt lat="46.99946" lon="5.3976">
        <ele>195.284912</ele>
        <time>2011-05-06T13:22:28Z</time>
      </trkpt>
      <trkpt lat="46.99961" lon="5.39603">
        <ele>193.843018</ele>
        <time>2011-05-06T13:22:45Z</time>
      </trkpt>
      <trkpt lat="46.99975" lon="5.394">
        <ele>193.362305</ele>
        <time>2011-05-06T13:23:09Z</time>
      </trkpt>
      <trkpt lat="46.99997" lon="5.39217">
        <ele>193.362305</ele>
        <time>2011-05-06T13:23:29Z</time>
      </trkpt>
      <trkpt lat="47.00037" lon="5.39086">
        <ele>194.32373</ele>
        <time>2011-05-06T13:23:44Z</time>
      </trkpt>
      <trkpt lat="47.00041" lon="5.39026">
        <ele>193.362305</ele>
        <time>2011-05-06T13:23:50Z</time>
      </trkpt>
      <trkpt lat="47.00083" lon="5.3897">
        <ele>194.32373</ele>
        <time>2011-05-06T13:23:59Z</time>
      </trkpt>
      <trkpt lat="47.00109" lon="5.38972">
        <ele>195.284912</ele>
        <time>2011-05-06T13:24:03Z</time>
      </trkpt>
      <trkpt lat="47.00124" lon="5.38977">
        <ele>196.246338</ele>
        <time>2011-05-06T13:24:06Z</time>
      </trkpt>
      <trkpt lat="47.00191" lon="5.38994">
        <ele>195.284912</ele>
        <time>2011-05-06T13:24:21Z</time>
      </trkpt>
      <trkpt lat="47.00253" lon="5.39012">
        <ele>196.246338</ele>
        <time>2011-05-06T13:24:33Z</time>
      </trkpt>
      <trkpt lat="47.00364" lon="5.39051">
        <ele>194.804321</ele>
        <time>2011-05-06T13:24:50Z</time>
      </trkpt>
      <trkpt lat="47.00522" lon="5.39105">
        <ele>193.843018</ele>
        <time>2011-05-06T13:25:14Z</time>
      </trkpt>
      <trkpt lat="47.00535" lon="5.39107">
        <ele>193.362305</ele>
        <time>2011-05-06T13:25:16Z</time>
      </trkpt>
      <trkpt lat="47.00567" lon="5.39099">
        <ele>193.843018</ele>
        <time>2011-05-06T13:25:21Z</time>
      </trkpt>
      <trkpt lat="47.00673" lon="5.39006">
        <ele>194.804321</ele>
        <time>2011-05-06T13:25:40Z</time>
      </trkpt>
      <trkpt lat="47.00772" lon="5.38887">
        <ele>194.804321</ele>
        <time>2011-05-06T13:25:59Z</time>
      </trkpt>
      <trkpt lat="47.00825" lon="5.38726">
        <ele>194.32373</ele>
        <time>2011-05-06T13:26:17Z</time>
      </trkpt>
      <trkpt lat="47.00838" lon="5.38691">
        <ele>194.32373</ele>
        <time>2011-05-06T13:26:21Z</time>
      </trkpt>
      <trkpt lat="47.00878" lon="5.38639">
        <ele>193.362305</ele>
        <time>2011-05-06T13:26:29Z</time>
      </trkpt>
      <trkpt lat="47.00909" lon="5.38623">
        <ele>193.843018</ele>
        <time>2011-05-06T13:26:34Z</time>
      </trkpt>
      <trkpt lat="47.00929" lon="5.38619">
        <ele>194.32373</ele>
        <time>2011-05-06T13:26:37Z</time>
      </trkpt>
      <trkpt lat="47.00967" lon="5.38585">
        <ele>195.284912</ele>
        <time>2011-05-06T13:26:44Z</time>
      </trkpt>
      <trkpt lat="47.00978" lon="5.38561">
        <ele>195.284912</ele>
        <time>2011-05-06T13:26:47Z</time>
      </trkpt>
      <trkpt lat="47.00998" lon="5.38449">
        <ele>195.284912</ele>
        <time>2011-05-06T13:27:02Z</time>
      </trkpt>
      <trkpt lat="47.00996" lon="5.38359">
        <ele>196.246338</ele>
        <time>2011-05-06T13:27:13Z</time>
      </trkpt>
      <trkpt lat="47.01001" lon="5.38336">
        <ele>193.843018</ele>
        <time>2011-05-06T13:27:16Z</time>
      </trkpt>
      <trkpt lat="47.01011" lon="5.3833">
        <ele>193.843018</ele>
        <time>2011-05-06T13:27:18Z</time>
      </trkpt>
      <trkpt lat="47.0104" lon="5.38316">
        <ele>194.32373</ele>
        <time>2011-05-06T13:27:23Z</time>
      </trkpt>
      <trkpt lat="47.01051" lon="5.38309">
        <ele>194.32373</ele>
        <time>2011-05-06T13:27:25Z</time>
      </trkpt>
      <trkpt lat="47.01073" lon="5.38283">
        <ele>193.843018</ele>
        <time>2011-05-06T13:27:30Z</time>
      </trkpt>
      <trkpt lat="47.01091" lon="5.38266">
        <ele>194.32373</ele>
        <time>2011-05-06T13:27:34Z</time>
      </trkpt>
      <trkpt lat="47.01175" lon="5.38164">
        <ele>193.843018</ele>
        <time>2011-05-06T13:27:52Z</time>
      </trkpt>
      <trkpt lat="47.0122" lon="5.38107">
        <ele>194.32373</ele>
        <time>2011-05-06T13:28:01Z</time>
      </trkpt>
      <trkpt lat="47.01251" lon="5.37978">
        <ele>195.765625</ele>
        <time>2011-05-06T13:28:15Z</time>
      </trkpt>
      <trkpt lat="47.01317" lon="5.37753">
        <ele>195.284912</ele>
        <time>2011-05-06T13:28:40Z</time>
      </trkpt>
      <trkpt lat="47.01397" lon="5.37619">
        <ele>194.804321</ele>
        <time>2011-05-06T13:28:58Z</time>
      </trkpt>
      <trkpt lat="47.015" lon="5.37532">
        <ele>193.843018</ele>
        <time>2011-05-06T13:29:16Z</time>
      </trkpt>
      <trkpt lat="47.01506" lon="5.37527">
        <ele>193.843018</ele>
        <time>2011-05-06T13:29:17Z</time>
      </trkpt>
      <trkpt lat="47.01519" lon="5.37511">
        <ele>194.32373</ele>
        <time>2011-05-06T13:29:20Z</time>
      </trkpt>
      <trkpt lat="47.01531" lon="5.37488">
        <ele>193.362305</ele>
        <time>2011-05-06T13:29:29Z</time>
      </trkpt>
      <trkpt lat="47.01533" lon="5.37482">
        <ele>193.843018</ele>
        <time>2011-05-06T13:30:12Z</time>
      </trkpt>
      <trkpt lat="47.0154" lon="5.37447">
        <ele>193.843018</ele>
        <time>2011-05-06T13:30:35Z</time>
      </trkpt>
      <trkpt lat="47.01589" lon="5.37309">
        <ele>194.804321</ele>
        <time>2011-05-06T13:30:52Z</time>
      </trkpt>
      <trkpt lat="47.0172" lon="5.37075">
        <ele>194.804321</ele>
        <time>2011-05-06T13:31:21Z</time>
      </trkpt>
      <trkpt lat="47.01764" lon="5.36951">
        <ele>195.284912</ele>
        <time>2011-05-06T13:31:34Z</time>
      </trkpt>
      <trkpt lat="47.01788" lon="5.36726">
        <ele>194.804321</ele>
        <time>2011-05-06T13:31:55Z</time>
      </trkpt>
      <trkpt lat="47.01798" lon="5.36552">
        <ele>193.843018</ele>
        <time>2011-05-06T13:32:13Z</time>
      </trkpt>
      <trkpt lat="47.01841" lon="5.36385">
        <ele>194.32373</ele>
        <time>2011-05-06T13:32:32Z</time>
      </trkpt>
      <trkpt lat="47.01937" lon="5.36116">
        <ele>193.843018</ele>
        <time>2011-05-06T13:33:02Z</time>
      </trkpt>
      <trkpt lat="47.02008" lon="5.35902">
        <ele>194.32373</ele>
        <time>2011-05-06T13:33:27Z</time>
      </trkpt>
      <trkpt lat="47.02065" lon="5.35694">
        <ele>193.843018</ele>
        <time>2011-05-06T13:33:50Z</time>
      </trkpt>
      <trkpt lat="47.02125" lon="5.3544">
        <ele>194.32373</ele>
        <time>2011-05-06T13:34:17Z</time>
      </trkpt>
      <trkpt lat="47.02186" lon="5.35225">
        <ele>193.362305</ele>
        <time>2011-05-06T13:34:41Z</time>
      </trkpt>
      <trkpt lat="47.02284" lon="5.35032">
        <ele>192.401123</ele>
        <time>2011-05-06T13:35:05Z</time>
      </trkpt>
      <trkpt lat="47.02417" lon="5.34812">
        <ele>193.362305</ele>
        <time>2011-05-06T13:35:33Z</time>
      </trkpt>
      <trkpt lat="47.02513" lon="5.3466">
        <ele>193.362305</ele>
        <time>2011-05-06T13:35:52Z</time>
      </trkpt>
      <trkpt lat="47.02582" lon="5.34511">
        <ele>193.843018</ele>
        <time>2011-05-06T13:36:09Z</time>
      </trkpt>
      <trkpt lat="47.02661" lon="5.34303">
        <ele>192.401123</ele>
        <time>2011-05-06T13:36:31Z</time>
      </trkpt>
      <trkpt lat="47.0267" lon="5.34228">
        <ele>193.843018</ele>
        <time>2011-05-06T13:36:38Z</time>
      </trkpt>
      <trkpt lat="47.02684" lon="5.34106">
        <ele>194.32373</ele>
        <time>2011-05-06T13:36:50Z</time>
      </trkpt>
      <trkpt lat="47.02702" lon="5.33935">
        <ele>192.881714</ele>
        <time>2011-05-06T13:37:07Z</time>
      </trkpt>
      <trkpt lat="47.02736" lon="5.33766">
        <ele>192.881714</ele>
        <time>2011-05-06T13:37:25Z</time>
      </trkpt>
      <trkpt lat="47.02772" lon="5.33576">
        <ele>191.920288</ele>
        <time>2011-05-06T13:37:46Z</time>
      </trkpt>
      <trkpt lat="47.02776" lon="5.33561">
        <ele>191.920288</ele>
        <time>2011-05-06T13:37:48Z</time>
      </trkpt>
      <trkpt lat="47.02789" lon="5.33541">
        <ele>191.439575</ele>
        <time>2011-05-06T13:37:52Z</time>
      </trkpt>
      <trkpt lat="47.02873" lon="5.33492">
        <ele>191.439575</ele>
        <time>2011-05-06T13:38:09Z</time>
      </trkpt>
      <trkpt lat="47.02959" lon="5.33411">
        <ele>191.920288</ele>
        <time>2011-05-06T13:38:25Z</time>
      </trkpt>
      <trkpt lat="47.03009" lon="5.33317">
        <ele>191.920288</ele>
        <time>2011-05-06T13:38:37Z</time>
      </trkpt>
      <trkpt lat="47.03081" lon="5.33184">
        <ele>191.920288</ele>
        <time>2011-05-06T13:38:54Z</time>
      </trkpt>
      <trkpt lat="47.03141" lon="5.33128">
        <ele>191.920288</ele>
        <time>2011-05-06T13:39:04Z</time>
      </trkpt>
      <trkpt lat="47.0317" lon="5.33101">
        <ele>192.401123</ele>
        <time>2011-05-06T13:39:09Z</time>
      </trkpt>
      <trkpt lat="47.03216" lon="5.33036">
        <ele>192.881714</ele>
        <time>2011-05-06T13:39:19Z</time>
      </trkpt>
      <trkpt lat="47.03302" lon="5.32903">
        <ele>192.881714</ele>
        <time>2011-05-06T13:39:39Z</time>
      </trkpt>
      <trkpt lat="47.03388" lon="5.3281">
        <ele>192.401123</ele>
        <time>2011-05-06T13:39:55Z</time>
      </trkpt>
      <trkpt lat="47.03424" lon="5.32772">
        <ele>192.401123</ele>
        <time>2011-05-06T13:40:02Z</time>
      </trkpt>
      <trkpt lat="47.0346" lon="5.32696">
        <ele>193.843018</ele>
        <time>2011-05-06T13:40:11Z</time>
      </trkpt>
      <trkpt lat="47.03483" lon="5.32641">
        <ele>191.920288</ele>
        <time>2011-05-06T13:40:17Z</time>
      </trkpt>
      <trkpt lat="47.03541" lon="5.32525">
        <ele>191.920288</ele>
        <time>2011-05-06T13:40:31Z</time>
      </trkpt>
      <trkpt lat="47.03571" lon="5.32508">
        <ele>191.920288</ele>
        <time>2011-05-06T13:40:36Z</time>
      </trkpt>
      <trkpt lat="47.03601" lon="5.32544">
        <ele>190.958984</ele>
        <time>2011-05-06T13:40:43Z</time>
      </trkpt>
      <trkpt lat="47.03603" lon="5.32575">
        <ele>190.958984</ele>
        <time>2011-05-06T13:40:47Z</time>
      </trkpt>
      <trkpt lat="47.03602" lon="5.32609">
        <ele>190.958984</ele>
        <time>2011-05-06T13:40:52Z</time>
      </trkpt>
      <trkpt lat="47.0361" lon="5.32643">
        <ele>191.439575</ele>
        <time>2011-05-06T13:40:57Z</time>
      </trkpt>
      <trkpt lat="47.03621" lon="5.32662">
        <ele>190.958984</ele>
        <time>2011-05-06T13:41:00Z</time>
      </trkpt>
      <trkpt lat="47.03698" lon="5.32807">
        <ele>190.478394</ele>
        <time>2011-05-06T13:41:22Z</time>
      </trkpt>
      <trkpt lat="47.03778" lon="5.32888">
        <ele>190.478394</ele>
        <time>2011-05-06T13:41:39Z</time>
      </trkpt>
      <trkpt lat="47.03819" lon="5.32926">
        <ele>190.478394</ele>
        <time>2011-05-06T13:41:47Z</time>
      </trkpt>
      <trkpt lat="47.03895" lon="5.3305">
        <ele>191.439575</ele>
        <time>2011-05-06T13:42:06Z</time>
      </trkpt>
      <trkpt lat="47.03997" lon="5.33218">
        <ele>191.439575</ele>
        <time>2011-05-06T13:42:30Z</time>
      </trkpt>
      <trkpt lat="47.04119" lon="5.3341">
        <ele>192.881714</ele>
        <time>2011-05-06T13:42:58Z</time>
      </trkpt>
      <trkpt lat="47.04256" lon="5.33627">
        <ele>192.401123</ele>
        <time>2011-05-06T13:43:28Z</time>
      </trkpt>
      <trkpt lat="47.04409" lon="5.33876">
        <ele>192.401123</ele>
        <time>2011-05-06T13:44:01Z</time>
      </trkpt>
      <trkpt lat="47.04489" lon="5.33937">
        <ele>192.401123</ele>
        <time>2011-05-06T13:44:13Z</time>
      </trkpt>
      <trkpt lat="47.04641" lon="5.33971">
        <ele>191.920288</ele>
        <time>2011-05-06T13:44:33Z</time>
      </trkpt>
      <trkpt lat="47.04929" lon="5.34031">
        <ele>191.439575</ele>
        <time>2011-05-06T13:45:10Z</time>
      </trkpt>
      <trkpt lat="47.05133" lon="5.34079">
        <ele>191.920288</ele>
        <time>2011-05-06T13:45:36Z</time>
      </trkpt>
      <trkpt lat="47.05429" lon="5.3416">
        <ele>192.401123</ele>
        <time>2011-05-06T13:46:13Z</time>
      </trkpt>
      <trkpt lat="47.05612" lon="5.3423">
        <ele>192.401123</ele>
        <time>2011-05-06T13:46:36Z</time>
      </trkpt>
      <trkpt lat="47.05734" lon="5.34352">
        <ele>192.881714</ele>
        <time>2011-05-06T13:46:54Z</time>
      </trkpt>
      <trkpt lat="47.05847" lon="5.34462">
        <ele>193.843018</ele>
        <time>2011-05-06T13:47:12Z</time>
      </trkpt>
      <trkpt lat="47.05965" lon="5.34563">
        <ele>192.401123</ele>
        <time>2011-05-06T13:47:30Z</time>
      </trkpt>
      <trkpt lat="47.05984" lon="5.3458">
        <ele>192.401123</ele>
        <time>2011-05-06T13:47:33Z</time>
      </trkpt>
      <trkpt lat="47.0599" lon="5.34634">
        <ele>192.881714</ele>
        <time>2011-05-06T13:47:39Z</time>
      </trkpt>
      <trkpt lat="47.0592" lon="5.34778">
        <ele>192.401123</ele>
        <time>2011-05-06T13:47:56Z</time>
      </trkpt>
      <trkpt lat="47.05897" lon="5.34818">
        <ele>192.881714</ele>
        <time>2011-05-06T13:48:01Z</time>
      </trkpt>
      <trkpt lat="47.05824" lon="5.35">
        <ele>193.362305</ele>
        <time>2011-05-06T13:48:21Z</time>
      </trkpt>
      <trkpt lat="47.05772" lon="5.35124">
        <ele>192.401123</ele>
        <time>2011-05-06T13:48:35Z</time>
      </trkpt>
      <trkpt lat="47.05782" lon="5.35175">
        <ele>191.920288</ele>
        <time>2011-05-06T13:48:41Z</time>
      </trkpt>
      <trkpt lat="47.05894" lon="5.35284">
        <ele>192.401123</ele>
        <time>2011-05-06T13:48:58Z</time>
      </trkpt>
      <trkpt lat="47.05985" lon="5.35321">
        <ele>191.920288</ele>
        <time>2011-05-06T13:49:10Z</time>
      </trkpt>
      <trkpt lat="47.06093" lon="5.3533">
        <ele>191.920288</ele>
        <time>2011-05-06T13:49:23Z</time>
      </trkpt>
      <trkpt lat="47.0611" lon="5.35342">
        <ele>192.401123</ele>
        <time>2011-05-06T13:49:25Z</time>
      </trkpt>
      <trkpt lat="47.06153" lon="5.35406">
        <ele>191.920288</ele>
        <time>2011-05-06T13:49:32Z</time>
      </trkpt>
      <trkpt lat="47.06258" lon="5.35498">
        <ele>192.401123</ele>
        <time>2011-05-06T13:49:46Z</time>
      </trkpt>
      <trkpt lat="47.06364" lon="5.35626">
        <ele>192.401123</ele>
        <time>2011-05-06T13:50:02Z</time>
      </trkpt>
      <trkpt lat="47.06422" lon="5.35779">
        <ele>193.362305</ele>
        <time>2011-05-06T13:50:16Z</time>
      </trkpt>
      <trkpt lat="47.06512" lon="5.36028">
        <ele>192.881714</ele>
        <time>2011-05-06T13:50:38Z</time>
      </trkpt>
      <trkpt lat="47.06574" lon="5.36116">
        <ele>193.362305</ele>
        <time>2011-05-06T13:50:48Z</time>
      </trkpt>
      <trkpt lat="47.0675" lon="5.36308">
        <ele>192.881714</ele>
        <time>2011-05-06T13:51:13Z</time>
      </trkpt>
      <trkpt lat="47.06849" lon="5.36378">
        <ele>192.401123</ele>
        <time>2011-05-06T13:51:25Z</time>
      </trkpt>
      <trkpt lat="47.06999" lon="5.3642">
        <ele>191.920288</ele>
        <time>2011-05-06T13:51:42Z</time>
      </trkpt>
      <trkpt lat="47.07098" lon="5.3645">
        <ele>191.920288</ele>
        <time>2011-05-06T13:51:55Z</time>
      </trkpt>
      <trkpt lat="47.07137" lon="5.36474">
        <ele>191.439575</ele>
        <time>2011-05-06T13:52:04Z</time>
      </trkpt>
      <trkpt lat="47.07142" lon="5.3648">
        <ele>190.958984</ele>
        <time>2011-05-06T13:52:15Z</time>
      </trkpt>
      <trkpt lat="47.07142" lon="5.36482">
        <ele>190.958984</ele>
        <time>2011-05-06T13:52:35Z</time>
      </trkpt>
      <trkpt lat="47.07129" lon="5.36529">
        <ele>191.439575</ele>
        <time>2011-05-06T13:52:51Z</time>
      </trkpt>
      <trkpt lat="47.07096" lon="5.3663">
        <ele>191.439575</ele>
        <time>2011-05-06T13:53:09Z</time>
      </trkpt>
      <trkpt lat="47.07057" lon="5.36765">
        <ele>191.920288</ele>
        <time>2011-05-06T13:53:28Z</time>
      </trkpt>
      <trkpt lat="47.07037" lon="5.36816">
        <ele>191.920288</ele>
        <time>2011-05-06T13:53:35Z</time>
      </trkpt>
      <trkpt lat="47.07017" lon="5.36862">
        <ele>191.920288</ele>
        <time>2011-05-06T13:53:42Z</time>
      </trkpt>
      <trkpt lat="47.07009" lon="5.36892">
        <ele>192.401123</ele>
        <time>2011-05-06T13:53:46Z</time>
      </trkpt>
      <trkpt lat="47.07018" lon="5.36926">
        <ele>191.920288</ele>
        <time>2011-05-06T13:53:52Z</time>
      </trkpt>
      <trkpt lat="47.07116" lon="5.36995">
        <ele>194.804321</ele>
        <time>2011-05-06T13:54:11Z</time>
      </trkpt>
      <trkpt lat="47.07196" lon="5.37055">
        <ele>191.920288</ele>
        <time>2011-05-06T13:54:24Z</time>
      </trkpt>
      <trkpt lat="47.07306" lon="5.37132">
        <ele>192.881714</ele>
        <time>2011-05-06T13:54:40Z</time>
      </trkpt>
      <trkpt lat="47.07325" lon="5.37151">
        <ele>193.362305</ele>
        <time>2011-05-06T13:54:43Z</time>
      </trkpt>
      <trkpt lat="47.07387" lon="5.37247">
        <ele>192.881714</ele>
        <time>2011-05-06T13:54:54Z</time>
      </trkpt>
      <trkpt lat="47.07393" lon="5.37256">
        <ele>192.881714</ele>
        <time>2011-05-06T13:54:55Z</time>
      </trkpt>
      <trkpt lat="47.07432" lon="5.37361">
        <ele>192.881714</ele>
        <time>2011-05-06T13:55:05Z</time>
      </trkpt>
      <trkpt lat="47.07452" lon="5.37439">
        <ele>193.843018</ele>
        <time>2011-05-06T13:55:12Z</time>
      </trkpt>
      <trkpt lat="47.07484" lon="5.37705">
        <ele>194.32373</ele>
        <time>2011-05-06T13:55:34Z</time>
      </trkpt>
      <trkpt lat="47.07506" lon="5.37927">
        <ele>194.804321</ele>
        <time>2011-05-06T13:55:53Z</time>
      </trkpt>
      <trkpt lat="47.0753" lon="5.38168">
        <ele>193.843018</ele>
        <time>2011-05-06T13:56:14Z</time>
      </trkpt>
      <trkpt lat="47.07568" lon="5.38476">
        <ele>194.32373</ele>
        <time>2011-05-06T13:56:40Z</time>
      </trkpt>
      <trkpt lat="47.07619" lon="5.38811">
        <ele>194.804321</ele>
        <time>2011-05-06T13:57:08Z</time>
      </trkpt>
      <trkpt lat="47.07717" lon="5.39047">
        <ele>195.765625</ele>
        <time>2011-05-06T13:57:31Z</time>
      </trkpt>
      <trkpt lat="47.07742" lon="5.39109">
        <ele>196.726929</ele>
        <time>2011-05-06T13:57:37Z</time>
      </trkpt>
      <trkpt lat="47.07746" lon="5.39153">
        <ele>197.688232</ele>
        <time>2011-05-06T13:57:41Z</time>
      </trkpt>
      <trkpt lat="47.07719" lon="5.39352">
        <ele>198.168945</ele>
        <time>2011-05-06T13:58:00Z</time>
      </trkpt>
      <trkpt lat="47.0769" lon="5.39621">
        <ele>201.052856</ele>
        <time>2011-05-06T13:58:25Z</time>
      </trkpt>
      <trkpt lat="47.07673" lon="5.3977">
        <ele>203.93689</ele>
        <time>2011-05-06T13:58:41Z</time>
      </trkpt>
      <trkpt lat="47.0765" lon="5.39956">
        <ele>205.378784</ele>
        <time>2011-05-06T13:59:00Z</time>
      </trkpt>
      <trkpt lat="47.07627" lon="5.40133">
        <ele>206.340088</ele>
        <time>2011-05-06T13:59:17Z</time>
      </trkpt>
      <trkpt lat="47.07595" lon="5.40378">
        <ele>206.340088</ele>
        <time>2011-05-06T13:59:40Z</time>
      </trkpt>
      <trkpt lat="47.07576" lon="5.4051">
        <ele>203.93689</ele>
        <time>2011-05-06T13:59:51Z</time>
      </trkpt>
      <trkpt lat="47.07553" lon="5.40693">
        <ele>204.898071</ele>
        <time>2011-05-06T14:00:06Z</time>
      </trkpt>
      <trkpt lat="47.07542" lon="5.40782">
        <ele>206.340088</ele>
        <time>2011-05-06T14:00:14Z</time>
      </trkpt>
      <trkpt lat="47.07522" lon="5.40839">
        <ele>206.820679</ele>
        <time>2011-05-06T14:00:20Z</time>
      </trkpt>
      <trkpt lat="47.07474" lon="5.40928">
        <ele>204.898071</ele>
        <time>2011-05-06T14:00:29Z</time>
      </trkpt>
      <trkpt lat="47.07451" lon="5.41013">
        <ele>202.975464</ele>
        <time>2011-05-06T14:00:36Z</time>
      </trkpt>
      <trkpt lat="47.07462" lon="5.4105">
        <ele>203.456177</ele>
        <time>2011-05-06T14:00:40Z</time>
      </trkpt>
      <trkpt lat="47.07502" lon="5.41091">
        <ele>205.378784</ele>
        <time>2011-05-06T14:00:47Z</time>
      </trkpt>
      <trkpt lat="47.0754" lon="5.41133">
        <ele>205.859497</ele>
        <time>2011-05-06T14:00:54Z</time>
      </trkpt>
      <trkpt lat="47.07546" lon="5.41171">
        <ele>206.820679</ele>
        <time>2011-05-06T14:01:00Z</time>
      </trkpt>
      <trkpt lat="47.07529" lon="5.41222">
        <ele>208.743408</ele>
        <time>2011-05-06T14:01:11Z</time>
      </trkpt>
      <trkpt lat="47.07493" lon="5.4126">
        <ele>210.666016</ele>
        <time>2011-05-06T14:01:21Z</time>
      </trkpt>
      <trkpt lat="47.07489" lon="5.41264">
        <ele>211.146729</ele>
        <time>2011-05-06T14:01:22Z</time>
      </trkpt>
      <trkpt lat="47.07404" lon="5.41311">
        <ele>212.108032</ele>
        <time>2011-05-06T14:01:38Z</time>
      </trkpt>
      <trkpt lat="47.07391" lon="5.41318">
        <ele>212.108032</ele>
        <time>2011-05-06T14:01:40Z</time>
      </trkpt>
      <trkpt lat="47.07356" lon="5.41316">
        <ele>212.588623</ele>
        <time>2011-05-06T14:01:45Z</time>
      </trkpt>
      <trkpt lat="47.07329" lon="5.413">
        <ele>212.588623</ele>
        <time>2011-05-06T14:01:49Z</time>
      </trkpt>
      <trkpt lat="47.07195" lon="5.41224">
        <ele>210.666016</ele>
        <time>2011-05-06T14:02:10Z</time>
      </trkpt>
      <trkpt lat="47.07188" lon="5.41223">
        <ele>211.146729</ele>
        <time>2011-05-06T14:02:11Z</time>
      </trkpt>
      <trkpt lat="47.07102" lon="5.41259">
        <ele>211.627441</ele>
        <time>2011-05-06T14:02:25Z</time>
      </trkpt>
      <trkpt lat="47.07021" lon="5.41304">
        <ele>212.588623</ele>
        <time>2011-05-06T14:02:39Z</time>
      </trkpt>
      <trkpt lat="47.06973" lon="5.41335">
        <ele>214.03064</ele>
        <time>2011-05-06T14:02:47Z</time>
      </trkpt>
      <trkpt lat="47.0696" lon="5.41337">
        <ele>214.03064</ele>
        <time>2011-05-06T14:02:49Z</time>
      </trkpt>
      <trkpt lat="47.06834" lon="5.41401">
        <ele>214.51123</ele>
        <time>2011-05-06T14:03:09Z</time>
      </trkpt>
      <trkpt lat="47.06772" lon="5.41432">
        <ele>213.550049</ele>
        <time>2011-05-06T14:03:19Z</time>
      </trkpt>
      <trkpt lat="47.06749" lon="5.41449">
        <ele>213.550049</ele>
        <time>2011-05-06T14:03:23Z</time>
      </trkpt>
      <trkpt lat="47.06725" lon="5.41453">
        <ele>213.550049</ele>
        <time>2011-05-06T14:03:27Z</time>
      </trkpt>
      <trkpt lat="47.06626" lon="5.41494">
        <ele>214.03064</ele>
        <time>2011-05-06T14:03:45Z</time>
      </trkpt>
      <trkpt lat="47.06481" lon="5.41559">
        <ele>214.991943</ele>
        <time>2011-05-06T14:04:09Z</time>
      </trkpt>
      <trkpt lat="47.06345" lon="5.41595">
        <ele>213.069336</ele>
        <time>2011-05-06T14:04:29Z</time>
      </trkpt>
      <trkpt lat="47.06307" lon="5.41574">
        <ele>213.069336</ele>
        <time>2011-05-06T14:04:35Z</time>
      </trkpt>
      <trkpt lat="47.06289" lon="5.41569">
        <ele>211.146729</ele>
        <time>2011-05-06T14:04:38Z</time>
      </trkpt>
      <trkpt lat="47.06277" lon="5.41589">
        <ele>210.666016</ele>
        <time>2011-05-06T14:04:41Z</time>
      </trkpt>
      <trkpt lat="47.06229" lon="5.41764">
        <ele>210.185425</ele>
        <time>2011-05-06T14:05:00Z</time>
      </trkpt>
      <trkpt lat="47.06217" lon="5.41827">
        <ele>207.782104</ele>
        <time>2011-05-06T14:05:06Z</time>
      </trkpt>
      <trkpt lat="47.06186" lon="5.41998">
        <ele>204.898071</ele>
        <time>2011-05-06T14:05:21Z</time>
      </trkpt>
      <trkpt lat="47.06182" lon="5.42163">
        <ele>204.898071</ele>
        <time>2011-05-06T14:05:35Z</time>
      </trkpt>
      <trkpt lat="47.06201" lon="5.42324">
        <ele>202.014282</ele>
        <time>2011-05-06T14:05:50Z</time>
      </trkpt>
      <trkpt lat="47.06262" lon="5.42558">
        <ele>202.014282</ele>
        <time>2011-05-06T14:06:12Z</time>
      </trkpt>
      <trkpt lat="47.06282" lon="5.42635">
        <ele>201.052856</ele>
        <time>2011-05-06T14:06:20Z</time>
      </trkpt>
      <trkpt lat="47.06261" lon="5.42673">
        <ele>202.494873</ele>
        <time>2011-05-06T14:06:26Z</time>
      </trkpt>
      <trkpt lat="47.06254" lon="5.42674">
        <ele>202.975464</ele>
        <time>2011-05-06T14:06:27Z</time>
      </trkpt>
      <trkpt lat="47.06167" lon="5.42675">
        <ele>200.572266</ele>
        <time>2011-05-06T14:06:40Z</time>
      </trkpt>
      <trkpt lat="47.05992" lon="5.42675">
        <ele>201.052856</ele>
        <time>2011-05-06T14:07:05Z</time>
      </trkpt>
      <trkpt lat="47.05981" lon="5.42675">
        <ele>201.533569</ele>
        <time>2011-05-06T14:07:07Z</time>
      </trkpt>
      <trkpt lat="47.05977" lon="5.42676">
        <ele>202.014282</ele>
        <time>2011-05-06T14:07:08Z</time>
      </trkpt>
      <trkpt lat="47.0597" lon="5.42718">
        <ele>200.091675</ele>
        <time>2011-05-06T14:07:15Z</time>
      </trkpt>
      <trkpt lat="47.05969" lon="5.42917">
        <ele>199.61084</ele>
        <time>2011-05-06T14:07:37Z</time>
      </trkpt>
      <trkpt lat="47.05964" lon="5.42945">
        <ele>198.649536</ele>
        <time>2011-05-06T14:07:40Z</time>
      </trkpt>
      <trkpt lat="47.0597" lon="5.42989">
        <ele>199.130127</ele>
        <time>2011-05-06T14:07:45Z</time>
      </trkpt>
      <trkpt lat="47.05972" lon="5.43158">
        <ele>198.649536</ele>
        <time>2011-05-06T14:08:02Z</time>
      </trkpt>
      <trkpt lat="47.05972" lon="5.43438">
        <ele>198.649536</ele>
        <time>2011-05-06T14:08:28Z</time>
      </trkpt>
      <trkpt lat="47.05973" lon="5.43649">
        <ele>200.572266</ele>
        <time>2011-05-06T14:08:48Z</time>
      </trkpt>
      <trkpt lat="47.05976" lon="5.43706">
        <ele>200.091675</ele>
        <time>2011-05-06T14:08:55Z</time>
      </trkpt>
      <trkpt lat="47.05958" lon="5.43812">
        <ele>200.091675</ele>
        <time>2011-05-06T14:09:08Z</time>
      </trkpt>
      <trkpt lat="47.05903" lon="5.43897">
        <ele>199.61084</ele>
        <time>2011-05-06T14:09:22Z</time>
      </trkpt>
      <trkpt lat="47.05848" lon="5.43977">
        <ele>200.572266</ele>
        <time>2011-05-06T14:09:36Z</time>
      </trkpt>
      <trkpt lat="47.05737" lon="5.44119">
        <ele>200.091675</ele>
        <time>2011-05-06T14:10:03Z</time>
      </trkpt>
      <trkpt lat="47.05676" lon="5.44196">
        <ele>200.091675</ele>
        <time>2011-05-06T14:10:19Z</time>
      </trkpt>
      <trkpt lat="47.05655" lon="5.44206">
        <ele>199.130127</ele>
        <time>2011-05-06T14:10:24Z</time>
      </trkpt>
      <trkpt lat="47.05644" lon="5.44217">
        <ele>199.61084</ele>
        <time>2011-05-06T14:10:27Z</time>
      </trkpt>
      <trkpt lat="47.05633" lon="5.44237">
        <ele>199.61084</ele>
        <time>2011-05-06T14:10:31Z</time>
      </trkpt>
      <trkpt lat="47.05629" lon="5.44252">
        <ele>202.494873</ele>
        <time>2011-05-06T14:10:34Z</time>
      </trkpt>
      <trkpt lat="47.05611" lon="5.44271">
        <ele>201.052856</ele>
        <time>2011-05-06T14:10:39Z</time>
      </trkpt>
      <trkpt lat="47.05608" lon="5.44275">
        <ele>201.052856</ele>
        <time>2011-05-06T14:10:40Z</time>
      </trkpt>
      <trkpt lat="47.05563" lon="5.44343">
        <ele>201.533569</ele>
        <time>2011-05-06T14:10:52Z</time>
      </trkpt>
      <trkpt lat="47.0555" lon="5.44389">
        <ele>201.533569</ele>
        <time>2011-05-06T14:10:58Z</time>
      </trkpt>
      <trkpt lat="47.05552" lon="5.44428">
        <ele>200.572266</ele>
        <time>2011-05-06T14:11:03Z</time>
      </trkpt>
      <trkpt lat="47.05605" lon="5.44591">
        <ele>201.052856</ele>
        <time>2011-05-06T14:11:25Z</time>
      </trkpt>
      <trkpt lat="47.0565" lon="5.44747">
        <ele>201.052856</ele>
        <time>2011-05-06T14:11:46Z</time>
      </trkpt>
      <trkpt lat="47.05704" lon="5.44913">
        <ele>201.052856</ele>
        <time>2011-05-06T14:12:08Z</time>
      </trkpt>
      <trkpt lat="47.05765" lon="5.45112">
        <ele>201.052856</ele>
        <time>2011-05-06T14:12:33Z</time>
      </trkpt>
      <trkpt lat="47.05816" lon="5.45279">
        <ele>201.533569</ele>
        <time>2011-05-06T14:12:54Z</time>
      </trkpt>
      <trkpt lat="47.05851" lon="5.45396">
        <ele>201.533569</ele>
        <time>2011-05-06T14:13:09Z</time>
      </trkpt>
      <trkpt lat="47.05894" lon="5.45528">
        <ele>202.014282</ele>
        <time>2011-05-06T14:13:26Z</time>
      </trkpt>
      <trkpt lat="47.05956" lon="5.45729">
        <ele>201.052856</ele>
        <time>2011-05-06T14:13:50Z</time>
      </trkpt>
      <trkpt lat="47.06015" lon="5.45914">
        <ele>200.572266</ele>
        <time>2011-05-06T14:14:12Z</time>
      </trkpt>
      <trkpt lat="47.06051" lon="5.46036">
        <ele>200.572266</ele>
        <time>2011-05-06T14:14:27Z</time>
      </trkpt>
      <trkpt lat="47.06086" lon="5.46098">
        <ele>200.091675</ele>
        <time>2011-05-06T14:14:39Z</time>
      </trkpt>
      <trkpt lat="47.06089" lon="5.46102">
        <ele>200.091675</ele>
        <time>2011-05-06T14:14:40Z</time>
      </trkpt>
      <trkpt lat="47.06095" lon="5.4611">
        <ele>200.091675</ele>
        <time>2011-05-06T14:14:42Z</time>
      </trkpt>
      <trkpt lat="47.06112" lon="5.46116">
        <ele>201.052856</ele>
        <time>2011-05-06T14:14:46Z</time>
      </trkpt>
      <trkpt lat="47.06183" lon="5.46167">
        <ele>200.572266</ele>
        <time>2011-05-06T14:15:00Z</time>
      </trkpt>
      <trkpt lat="47.06211" lon="5.46185">
        <ele>200.572266</ele>
        <time>2011-05-06T14:15:05Z</time>
      </trkpt>
      <trkpt lat="47.06308" lon="5.46253">
        <ele>201.052856</ele>
        <time>2011-05-06T14:15:22Z</time>
      </trkpt>
      <trkpt lat="47.064" lon="5.46331">
        <ele>201.533569</ele>
        <time>2011-05-06T14:15:38Z</time>
      </trkpt>
      <trkpt lat="47.06534" lon="5.46435">
        <ele>201.533569</ele>
        <time>2011-05-06T14:16:00Z</time>
      </trkpt>
      <trkpt lat="47.06679" lon="5.46549">
        <ele>201.533569</ele>
        <time>2011-05-06T14:16:23Z</time>
      </trkpt>
      <trkpt lat="47.06772" lon="5.46621">
        <ele>201.533569</ele>
        <time>2011-05-06T14:16:38Z</time>
      </trkpt>
      <trkpt lat="47.06851" lon="5.46671">
        <ele>201.533569</ele>
        <time>2011-05-06T14:16:52Z</time>
      </trkpt>
      <trkpt lat="47.07017" lon="5.46802">
        <ele>201.533569</ele>
        <time>2011-05-06T14:17:20Z</time>
      </trkpt>
      <trkpt lat="47.07175" lon="5.46928">
        <ele>202.494873</ele>
        <time>2011-05-06T14:17:46Z</time>
      </trkpt>
      <trkpt lat="47.07195" lon="5.46956">
        <ele>201.533569</ele>
        <time>2011-05-06T14:17:50Z</time>
      </trkpt>
      <trkpt lat="47.07245" lon="5.46997">
        <ele>201.533569</ele>
        <time>2011-05-06T14:17:58Z</time>
      </trkpt>
      <trkpt lat="47.07265" lon="5.47023">
        <ele>201.533569</ele>
        <time>2011-05-06T14:18:02Z</time>
      </trkpt>
      <trkpt lat="47.07291" lon="5.47032">
        <ele>201.052856</ele>
        <time>2011-05-06T14:18:06Z</time>
      </trkpt>
      <trkpt lat="47.07365" lon="5.4709">
        <ele>202.014282</ele>
        <time>2011-05-06T14:18:19Z</time>
      </trkpt>
      <trkpt lat="47.07491" lon="5.4719">
        <ele>202.014282</ele>
        <time>2011-05-06T14:18:40Z</time>
      </trkpt>
      <trkpt lat="47.07578" lon="5.47259">
        <ele>201.533569</ele>
        <time>2011-05-06T14:18:55Z</time>
      </trkpt>
      <trkpt lat="47.07647" lon="5.47354">
        <ele>201.533569</ele>
        <time>2011-05-06T14:19:11Z</time>
      </trkpt>
      <trkpt lat="47.0773" lon="5.47485">
        <ele>201.533569</ele>
        <time>2011-05-06T14:19:31Z</time>
      </trkpt>
      <trkpt lat="47.07827" lon="5.47639">
        <ele>201.533569</ele>
        <time>2011-05-06T14:19:53Z</time>
      </trkpt>
      <trkpt lat="47.07864" lon="5.47693">
        <ele>201.533569</ele>
        <time>2011-05-06T14:20:02Z</time>
      </trkpt>
      <trkpt lat="47.07931" lon="5.478">
        <ele>202.014282</ele>
        <time>2011-05-06T14:20:20Z</time>
      </trkpt>
      <trkpt lat="47.07969" lon="5.4786">
        <ele>202.494873</ele>
        <time>2011-05-06T14:20:34Z</time>
      </trkpt>
      <trkpt lat="47.07965" lon="5.4785">
        <ele>203.456177</ele>
        <time>2011-05-06T14:20:39Z</time>
      </trkpt>
      <trkpt lat="47.0797" lon="5.47809">
        <ele>204.41748</ele>
        <time>2011-05-06T14:20:46Z</time>
      </trkpt>
      <trkpt lat="47.07998" lon="5.47785">
        <ele>206.820679</ele>
        <time>2011-05-06T14:20:56Z</time>
      </trkpt>
      <trkpt lat="47.08011" lon="5.47774">
        <ele>208.743408</ele>
        <time>2011-05-06T14:21:02Z</time>
      </trkpt>
      <trkpt lat="47.08027" lon="5.47761">
        <ele>211.146729</ele>
        <time>2011-05-06T14:21:10Z</time>
      </trkpt>
      <trkpt lat="47.08049" lon="5.47772">
        <ele>214.991943</ele>
        <time>2011-05-06T14:21:22Z</time>
      </trkpt>
      <trkpt lat="47.0805" lon="5.47774">
        <ele>214.51123</ele>
        <time>2011-05-06T14:21:23Z</time>
      </trkpt>
      <trkpt lat="47.08071" lon="5.47803">
        <ele>217.395386</ele>
        <time>2011-05-06T14:21:37Z</time>
      </trkpt>
      <trkpt lat="47.08073" lon="5.47805">
        <ele>218.356567</ele>
        <time>2011-05-06T14:21:39Z</time>
      </trkpt>
      <trkpt lat="47.08079" lon="5.47809">
        <ele>219.317993</ele>
        <time>2011-05-06T14:21:43Z</time>
      </trkpt>
      <trkpt lat="47.08095" lon="5.47817">
        <ele>222.201782</ele>
        <time>2011-05-06T14:21:51Z</time>
      </trkpt>
      <trkpt lat="47.08116" lon="5.47797">
        <ele>225.566528</ele>
        <time>2011-05-06T14:22:05Z</time>
      </trkpt>
      <trkpt lat="47.08131" lon="5.47772">
        <ele>227.969727</ele>
        <time>2011-05-06T14:22:17Z</time>
      </trkpt>
      <trkpt lat="47.08148" lon="5.47745">
        <ele>231.334351</ele>
        <time>2011-05-06T14:22:29Z</time>
      </trkpt>
      <trkpt lat="47.08157" lon="5.47719">
        <ele>233.737671</ele>
        <time>2011-05-06T14:22:39Z</time>
      </trkpt>
      <trkpt lat="47.08145" lon="5.47682">
        <ele>237.582886</ele>
        <time>2011-05-06T14:22:54Z</time>
      </trkpt>
      <trkpt lat="47.08143" lon="5.47675">
        <ele>238.063599</ele>
        <time>2011-05-06T14:22:57Z</time>
      </trkpt>
      <trkpt lat="47.08137" lon="5.47673">
        <ele>238.544312</ele>
        <time>2011-05-06T14:23:01Z</time>
      </trkpt>
      <trkpt lat="47.08119" lon="5.47701">
        <ele>237.102295</ele>
        <time>2011-05-06T14:23:14Z</time>
      </trkpt>
      <trkpt lat="47.08088" lon="5.47792">
        <ele>235.660278</ele>
        <time>2011-05-06T14:23:28Z</time>
      </trkpt>
      <trkpt lat="47.08045" lon="5.47948">
        <ele>232.295776</ele>
        <time>2011-05-06T14:23:45Z</time>
      </trkpt>
      <trkpt lat="47.08034" lon="5.47988">
        <ele>229.892334</ele>
        <time>2011-05-06T14:23:49Z</time>
      </trkpt>
      <trkpt lat="47.07987" lon="5.4817">
        <ele>226.047119</ele>
        <time>2011-05-06T14:24:04Z</time>
      </trkpt>
      <trkpt lat="47.07956" lon="5.48281">
        <ele>223.163208</ele>
        <time>2011-05-06T14:24:13Z</time>
      </trkpt>
      <trkpt lat="47.07922" lon="5.48409">
        <ele>220.279175</ele>
        <time>2011-05-06T14:24:23Z</time>
      </trkpt>
      <trkpt lat="47.07916" lon="5.48433">
        <ele>219.317993</ele>
        <time>2011-05-06T14:24:25Z</time>
      </trkpt>
      <trkpt lat="47.07907" lon="5.48466">
        <ele>217.875977</ele>
        <time>2011-05-06T14:24:28Z</time>
      </trkpt>
      <trkpt lat="47.07869" lon="5.48611">
        <ele>214.991943</ele>
        <time>2011-05-06T14:24:42Z</time>
      </trkpt>
      <trkpt lat="47.07846" lon="5.48691">
        <ele>212.108032</ele>
        <time>2011-05-06T14:24:50Z</time>
      </trkpt>
      <trkpt lat="47.07841" lon="5.48711">
        <ele>211.146729</ele>
        <time>2011-05-06T14:24:52Z</time>
      </trkpt>
      <trkpt lat="47.07831" lon="5.48752">
        <ele>210.185425</ele>
        <time>2011-05-06T14:24:56Z</time>
      </trkpt>
      <trkpt lat="47.07815" lon="5.48811">
        <ele>207.301392</ele>
        <time>2011-05-06T14:25:02Z</time>
      </trkpt>
      <trkpt lat="47.07805" lon="5.48878">
        <ele>204.898071</ele>
        <time>2011-05-06T14:25:13Z</time>
      </trkpt>
      <trkpt lat="47.07805" lon="5.48882">
        <ele>204.41748</ele>
        <time>2011-05-06T14:25:15Z</time>
      </trkpt>
      <trkpt lat="47.07803" lon="5.48885">
        <ele>204.898071</ele>
        <time>2011-05-06T14:25:17Z</time>
      </trkpt>
      <trkpt lat="47.07795" lon="5.48883">
        <ele>204.898071</ele>
        <time>2011-05-06T14:25:21Z</time>
      </trkpt>
      <trkpt lat="47.07781" lon="5.48878">
        <ele>206.340088</ele>
        <time>2011-05-06T14:25:26Z</time>
      </trkpt>
      <trkpt lat="47.07761" lon="5.48887">
        <ele>205.859497</ele>
        <time>2011-05-06T14:25:31Z</time>
      </trkpt>
      <trkpt lat="47.07739" lon="5.48896">
        <ele>206.820679</ele>
        <time>2011-05-06T14:25:36Z</time>
      </trkpt>
      <trkpt lat="47.07729" lon="5.48891">
        <ele>206.340088</ele>
        <time>2011-05-06T14:25:38Z</time>
      </trkpt>
      <trkpt lat="47.07694" lon="5.48923">
        <ele>206.340088</ele>
        <time>2011-05-06T14:25:47Z</time>
      </trkpt>
      <trkpt lat="47.07693" lon="5.48931">
        <ele>206.340088</ele>
        <time>2011-05-06T14:25:48Z</time>
      </trkpt>
      <trkpt lat="47.07691" lon="5.48947">
        <ele>205.859497</ele>
        <time>2011-05-06T14:25:50Z</time>
      </trkpt>
      <trkpt lat="47.07678" lon="5.48983">
        <ele>207.301392</ele>
        <time>2011-05-06T14:25:55Z</time>
      </trkpt>
      <trkpt lat="47.07599" lon="5.4909">
        <ele>206.820679</ele>
        <time>2011-05-06T14:26:12Z</time>
      </trkpt>
      <trkpt lat="47.07551" lon="5.49104">
        <ele>206.820679</ele>
        <time>2011-05-06T14:26:20Z</time>
      </trkpt>
      <trkpt lat="47.07532" lon="5.49081">
        <ele>205.859497</ele>
        <time>2011-05-06T14:26:24Z</time>
      </trkpt>
      <trkpt lat="47.07525" lon="5.4907">
        <ele>204.898071</ele>
        <time>2011-05-06T14:26:27Z</time>
      </trkpt>
      <trkpt lat="47.07521" lon="5.49072">
        <ele>204.41748</ele>
        <time>2011-05-06T14:26:39Z</time>
      </trkpt>
      <trkpt lat="47.0752" lon="5.49071">
        <ele>204.41748</ele>
        <time>2011-05-06T14:26:57Z</time>
      </trkpt>
    </trkseg>
  </trk>
</gpx>